PORTS® Data Listing: 8635750 Lewisetta, VA

CO-OPS RAW PORTS DATA

************************      PRELIMINARY DATA      ************************** 

     THIS RAW DATA HAS NOT BEEN SUBJECT TO THE NATIONAL OCEAN SERVICE'S        
     QUALITY CONTROL OR QUALITY ASSURANCE PROCEDURES AND DOES NOT MEET         
     THE CRITERIA AND STANDARDS OF OFFICIAL NATIONAL OCEAN SERVICE             
     DATA.  IT IS RELEASED FOR LIMITED PUBLIC USE AS PRELIMINARY DATA TO       
     BE USED ONLY WITH APPROPRIATE CAUTION.                                    

************************      PRELIMINARY DATA      ************************** 


       CD   -   Calendar date
       T    -   Time
       TZ   -   Timezone
       PW   -   Predicted water level (feet above MLLW)
       OW   -   Observed water level (feet above MLLW)
       WS   -   Wind speed (knots)
       WD   -   Wind direction (degrees true)
       WG   -   Wind gust (knots)
       AT   -   Air temperature (degrees farenheit)
       WT   -   Water temperature (degrees farenheit)
       AP   -   Air pressure (millibars)
       SA   -   Salinty (PSU - Practical Salinity Units)
       SG   -   Specific gravity
       RH   -   Relative humidity
       AG   -   Air gap (feet)
       VI   -   Visibility (nautical miles)

       ** NOTE **
       A variable that has its data fields filled with "9"s, indicates that
       data was not collected for that sample period.
       **********


STATION NAME: Lewisetta (8635750)
****************************************************************************************************
    CD       T    TZ    PW     OW    WS   WD   WG    AT    WT    AP    SA    SG     RH    AG   VI
****************************************************************************************************
2020/02/13 17:54 EST    1.01   1.89    9  352   11  57.0  45.7 1007.7 14.2  1.012 -99.9 -99.99 -9.99
2020/02/13 18:00 EST    0.99   1.87    8  334   12  56.8  45.5 1008.1 14.3  1.012 -99.9 -99.99 -9.99
2020/02/13 18:06 EST    0.97   1.84    9  346   11  56.8  45.3 1008.1 14.3  1.012 -99.9 -99.99 -9.99
2020/02/13 18:12 EST    0.94   1.82    8  342   11  56.8  45.0 1008.4 14.5  1.012 -99.9 -99.99 -9.99
2020/02/13 18:18 EST    0.92   1.82   10  334   15  56.1  44.8 1009.0 14.6  1.012 -99.9 -99.99 -9.99
2020/02/13 18:24 EST    0.89   1.80   10  339   14  55.9  44.8 1009.1 14.5  1.012 -99.9 -99.99 -9.99
2020/02/13 18:30 EST    0.87   1.79   12  348   18  55.8  45.1 1009.5 14.4  1.012 -99.9 -99.99 -9.99
2020/02/13 18:36 EST    0.84   1.75   12  345   19  55.2  45.1 1010.0 14.4  1.012 -99.9 -99.99 -9.99
2020/02/13 18:42 EST    0.81   1.72    9  334   13  54.5  45.1 1010.2 14.3  1.012 -99.9 -99.99 -9.99
2020/02/13 18:48 EST    0.78   1.69    9  346   12  54.1  45.1 1010.0 14.3  1.012 -99.9 -99.99 -9.99
2020/02/13 18:54 EST    0.74   1.66    9  341   14  54.0  45.1 1010.2 14.2  1.012 -99.9 -99.99 -9.99
2020/02/13 19:00 EST    0.71   1.64    9  340   11  53.6  45.3 1010.2 14.2  1.012 -99.9 -99.99 -9.99
2020/02/13 19:06 EST    0.68   1.62    9  339   14  53.4  45.3 1010.3 14.2  1.012 -99.9 -99.99 -9.99
2020/02/13 19:12 EST    0.64   1.60   11  337   15  54.0  45.1 1010.4 14.3  1.012 -99.9 -99.99 -9.99
2020/02/13 19:18 EST    0.61   1.59    9  331   14  53.8  45.0 1010.9 14.4  1.012 -99.9 -99.99 -9.99
2020/02/13 19:24 EST    0.57   1.55   10  341   14  54.1  45.0 1011.2 14.4  1.012 -99.9 -99.99 -9.99
2020/02/13 19:30 EST    0.54   1.50   11  337   15  53.8  45.0 1011.4 14.4  1.012 -99.9 -99.99 -9.99
2020/02/13 19:36 EST    0.50   1.48   10  331   13  53.4  45.0 1011.5 14.4  1.012 -99.9 -99.99 -9.99
2020/02/13 19:42 EST    0.46   1.45   11  333   14  53.6  45.0 1011.8 14.4  1.012 -99.9 -99.99 -9.99
2020/02/13 19:48 EST    0.43   1.44   12  340   16  53.2  45.1 1011.8 14.3  1.012 -99.9 -99.99 -9.99
2020/02/13 19:54 EST    0.39   1.41   13  342   22  52.7  45.1 1012.2 14.3  1.012 -99.9 -99.99 -9.99
2020/02/13 20:00 EST    0.35   1.39   13  352   21  50.9  45.1 1012.2 14.3  1.012 -99.9 -99.99 -9.99
2020/02/13 20:06 EST    0.32   1.40   15  350   21  50.7  45.7 1012.5 14.1  1.012 -99.9 -99.99 -9.99
2020/02/13 20:12 EST    0.28   1.38   14  348   19  50.4  45.9 1012.8 14.0  1.012 -99.9 -99.99 -9.99
2020/02/13 20:18 EST    0.25   1.36   15  341   20  50.0  45.9 1012.8 14.0  1.012 -99.9 -99.99 -9.99
2020/02/13 20:24 EST    0.21   1.33   15  344   19  50.0  45.9 1013.0 14.0  1.012 -99.9 -99.99 -9.99
2020/02/13 20:30 EST    0.18   1.31   13  347   19  49.5  45.9 1013.1 14.0  1.012 -99.9 -99.99 -9.99
2020/02/13 20:36 EST    0.15   1.28   11  341   17  49.1  45.7 1013.4 14.1  1.012 -99.9 -99.99 -9.99
2020/02/13 20:42 EST    0.11   1.26   13  343   21  49.1  45.3 1013.5 14.3  1.012 -99.9 -99.99 -9.99
2020/02/13 20:48 EST    0.08   1.23   14  341   24  49.1  45.3 1013.7 14.3  1.012 -99.9 -99.99 -9.99
2020/02/13 20:54 EST    0.05   1.20   16  340   22  49.1  45.3 1013.8 14.3  1.012 -99.9 -99.99 -9.99
2020/02/13 21:00 EST    0.02   1.19   16  345   22  48.9  45.3 1014.0 14.3  1.012 -99.9 -99.99 -9.99
2020/02/13 21:06 EST   -0.01   1.17   13  345   17  48.6  45.3 1014.1 14.3  1.012 -99.9 -99.99 -9.99
2020/02/13 21:12 EST   -0.04   1.14   12  346   18  48.2  45.3 1014.2 14.3  1.012 -99.9 -99.99 -9.99
2020/02/13 21:18 EST   -0.06   1.11   14  349   19  48.4  45.3 1014.3 14.3  1.012 -99.9 -99.99 -9.99
2020/02/13 21:24 EST   -0.09   1.07   13  342   20  48.2  45.5 1014.6 14.2  1.012 -99.9 -99.99 -9.99
2020/02/13 21:30 EST   -0.11   1.02   13  349   19  48.2  45.5 1014.6 14.2  1.012 -99.9 -99.99 -9.99
2020/02/13 21:36 EST   -0.14   0.98   13  344   18  48.0  45.5 1014.8 14.2  1.012 -99.9 -99.99 -9.99
2020/02/13 21:42 EST   -0.16   0.94   12  345   18  47.8  45.3 1014.7 14.3  1.012 -99.9 -99.99 -9.99
2020/02/13 21:48 EST   -0.18   0.90   11  344   17  47.8  45.3 1014.9 14.3  1.012 -99.9 -99.99 -9.99
2020/02/13 21:54 EST   -0.20   0.87   10  346   14  47.7  45.5 1015.2 14.2  1.012 -99.9 -99.99 -9.99
2020/02/13 22:00 EST   -0.22   0.85    9  349   11  47.7  46.0 1015.3 14.0  1.012 -99.9 -99.99 -9.99
2020/02/13 22:06 EST   -0.23   0.84   10  345   16  47.7  46.2 1015.5 13.9  1.012 -99.9 -99.99 -9.99
2020/02/13 22:12 EST   -0.25   0.82   10  345   14  47.5  45.7 1015.8 14.2  1.012 -99.9 -99.99 -9.99
2020/02/13 22:18 EST   -0.26   0.80   11  347   17  47.5  45.5 1015.5 14.2  1.012 -99.9 -99.99 -9.99
2020/02/13 22:24 EST   -0.27   0.78   13  347   18  47.5  45.7 1015.6 14.1  1.012 -99.9 -99.99 -9.99
2020/02/13 22:30 EST   -0.28   0.76   14  343   22  47.5  45.9 1016.0 14.1  1.012 -99.9 -99.99 -9.99
2020/02/13 22:36 EST   -0.29   0.76   14  346   19  47.3  45.9 1016.0 14.0  1.012 -99.9 -99.99 -9.99
2020/02/13 22:42 EST   -0.30   0.76   13  343   23  47.1  46.0 1016.1 13.9  1.012 -99.9 -99.99 -9.99
2020/02/13 22:48 EST   -0.31   0.75   11  346   17  46.9  46.0 1016.1 13.9  1.012 -99.9 -99.99 -9.99
2020/02/13 22:54 EST   -0.31   0.75   12  341   18  46.9  45.5 1016.7 14.1  1.012 -99.9 -99.99 -9.99
2020/02/13 23:00 EST   -0.31   0.75   12  346   17  46.8  45.3 1016.5 14.1  1.012 -99.9 -99.99 -9.99
2020/02/13 23:06 EST   -0.31   0.75   12  348   16  46.6  45.5 1016.6 14.1  1.012 -99.9 -99.99 -9.99
2020/02/13 23:12 EST   -0.31   0.75   10  346   14  46.6  45.5 1016.8 14.1  1.012 -99.9 -99.99 -9.99
2020/02/13 23:18 EST   -0.30   0.76    9  347   13  46.4  45.5 1016.9 14.0  1.012 -99.9 -99.99 -9.99
2020/02/13 23:24 EST   -0.30   0.76   10  351   15  46.2  45.5 1016.9 14.1  1.012 -99.9 -99.99 -9.99
2020/02/13 23:30 EST   -0.29   0.77   11  344   15  46.2  45.5 1016.9 14.1  1.012 -99.9 -99.99 -9.99
2020/02/13 23:36 EST   -0.28   0.79   11  352   17  46.0  45.5 1017.1 14.1  1.012 -99.9 -99.99 -9.99
2020/02/13 23:42 EST   -0.27   0.80    9  351   13  45.9  45.5 1017.2 14.1  1.012 -99.9 -99.99 -9.99
2020/02/13 23:48 EST   -0.25   0.82   15  348   20  45.9  45.5 1017.4 14.1  1.012 -99.9 -99.99 -9.99
2020/02/13 23:54 EST   -0.24   0.82   14  345   19  45.7  45.5 1017.5 14.1  1.012 -99.9 -99.99 -9.99
2020/02/14 00:00 EST   -0.22   0.82   13  341   19  45.7  45.7 1017.6 14.0  1.012 -99.9 -99.99 -9.99
2020/02/14 00:06 EST   -0.20   0.83   13  341   19  45.5  45.7 1017.6 14.0  1.012 -99.9 -99.99 -9.99
2020/02/14 00:12 EST   -0.18   0.83   11  346   16  45.3  45.9 1017.7 13.9  1.012 -99.9 -99.99 -9.99
2020/02/14 00:18 EST   -0.15   0.83   10  344   13  45.1  45.7 1017.6 14.0  1.012 -99.9 -99.99 -9.99
2020/02/14 00:24 EST   -0.13   0.83   10  345   15  45.1  45.7 1017.8 14.0  1.012 -99.9 -99.99 -9.99
2020/02/14 00:30 EST   -0.10   0.82    9  358   13  45.0  45.7 1017.7 13.9  1.012 -99.9 -99.99 -9.99
2020/02/14 00:36 EST   -0.07   0.81    7    5   12  45.0  45.7 1017.8 13.9  1.012 -99.9 -99.99 -9.99
2020/02/14 00:42 EST   -0.04   0.81   10  357   14  45.0  45.7 1018.1 13.9  1.012 -99.9 -99.99 -9.99
2020/02/14 00:48 EST   -0.01   0.79   11  359   17  44.8  45.9 1018.2 13.9  1.012 -99.9 -99.99 -9.99
2020/02/14 00:54 EST    0.03   0.79   12  359   18  44.6  45.9 1018.2 13.9  1.012 -99.9 -99.99 -9.99
2020/02/14 01:00 EST    0.06   0.79   11    1   17  44.4  45.7 1018.0 14.0  1.012 -99.9 -99.99 -9.99
2020/02/14 01:06 EST    0.10   0.81   11  358   16  44.4  45.7 1017.9 14.0  1.012 -99.9 -99.99 -9.99
2020/02/14 01:12 EST    0.14   0.84   13  352   18  44.4  45.7 1018.3 14.0  1.012 -99.9 -99.99 -9.99
2020/02/14 01:18 EST    0.17   0.86   11  351   18  44.2  45.7 1018.3 14.0  1.012 -99.9 -99.99 -9.99
2020/02/14 01:24 EST    0.21   0.89   12  347   18  44.2  45.7 1018.4 13.9  1.012 -99.9 -99.99 -9.99
2020/02/14 01:30 EST    0.25   0.91   11  346   18  44.2  45.5 1018.4 13.9  1.012 -99.9 -99.99 -9.99
2020/02/14 01:36 EST    0.29   0.93   14  350   20  44.2  45.5 1018.4 13.9  1.012 -99.9 -99.99 -9.99
2020/02/14 01:42 EST    0.33   0.96   11  349   16  44.1  45.5 1018.3 13.9  1.012 -99.9 -99.99 -9.99
2020/02/14 01:48 EST    0.37   1.00   11  350   17  44.1  45.3 1018.5 14.0  1.012 -99.9 -99.99 -9.99
2020/02/14 01:54 EST    0.41   1.03    9  351   11  43.9  45.3 1018.7 14.0  1.012 -99.9 -99.99 -9.99
2020/02/14 02:00 EST    0.45   1.07    8  348   11  43.9  45.5 1018.7 14.0  1.012 -99.9 -99.99 -9.99
2020/02/14 02:06 EST    0.49   1.09   10  349   13  43.7  45.5 1018.7 13.9  1.012 -99.9 -99.99 -9.99
2020/02/14 02:12 EST    0.53   1.12    7  346   10  43.7  45.5 1018.7 13.9  1.012 -99.9 -99.99 -9.99
2020/02/14 02:18 EST    0.57   1.16    6  350    9  43.5  45.5 1018.9 13.9  1.012 -99.9 -99.99 -9.99
2020/02/14 02:24 EST    0.61   1.19    7  350   11  43.7  45.5 1019.2 13.9  1.012 -99.9 -99.99 -9.99
2020/02/14 02:30 EST    0.65   1.22    7  344   11  43.5  45.5 1019.2 13.9  1.012 -99.9 -99.99 -9.99
2020/02/14 02:36 EST    0.69   1.26    7  354   13  43.5  45.5 1019.1 13.9  1.012 -99.9 -99.99 -9.99
2020/02/14 02:42 EST    0.73   1.30    8  353   12  43.5  45.5 1019.0 13.9  1.012 -99.9 -99.99 -9.99
2020/02/14 02:48 EST    0.76   1.35    9  353   13  43.5  45.5 1019.2 13.9  1.012 -99.9 -99.99 -9.99
2020/02/14 02:54 EST    0.80   1.39    7  352   10  43.5  45.3 1019.4 14.0  1.012 -99.9 -99.99 -9.99
2020/02/14 03:00 EST    0.83   1.43    8  350   11  43.3  45.3 1019.5 14.0  1.012 -99.9 -99.99 -9.99
2020/02/14 03:06 EST    0.86   1.47    6  343   10  43.3  45.5 1019.5 13.9  1.012 -99.9 -99.99 -9.99
2020/02/14 03:12 EST    0.90   1.51    9  340   12  43.3  45.5 1019.7 13.9  1.012 -99.9 -99.99 -9.99
2020/02/14 03:18 EST    0.93   1.53    7  334    9  43.3  45.5 1019.7 13.9  1.012 -99.9 -99.99 -9.99
2020/02/14 03:24 EST    0.96   1.54    5  338    8  43.2  45.5 1019.7 13.9  1.012 -99.9 -99.99 -9.99
2020/02/14 03:30 EST    0.98   1.55    5  347    7  43.0  45.5 1019.7 13.9  1.012 -99.9 -99.99 -9.99
2020/02/14 03:36 EST    1.01   1.58    5  343    8  43.0  45.5 1019.7 13.9  1.012 -99.9 -99.99 -9.99
2020/02/14 03:42 EST    1.04   1.58    7  348    9  43.0  45.5 1019.7 13.9  1.012 -99.9 -99.99 -9.99
2020/02/14 03:48 EST    1.06   1.59    6  338    8  43.0  45.5 1019.9 13.9  1.012 -99.9 -99.99 -9.99
2020/02/14 03:54 EST    1.08   1.59    6  348   10  43.0  45.5 1019.8 13.9  1.012 -99.9 -99.99 -9.99
2020/02/14 04:00 EST    1.11   1.59    7  349   10  43.0  45.5 1019.9 13.9  1.012 -99.9 -99.99 -9.99
2020/02/14 04:06 EST    1.13   1.60    6  353    8  42.8  45.5 1020.0 14.0  1.012 -99.9 -99.99 -9.99
2020/02/14 04:12 EST    1.15   1.61    6  351    9  43.0  45.5 1020.4 14.0  1.012 -99.9 -99.99 -9.99
2020/02/14 04:18 EST    1.16   1.62    6  339    9  43.0  45.5 1020.3 14.0  1.012 -99.9 -99.99 -9.99
2020/02/14 04:24 EST    1.18   1.63    6  355    7  42.8  45.5 1020.2 14.1  1.012 -99.9 -99.99 -9.99
2020/02/14 04:30 EST    1.19   1.64    5  345    7  42.6  45.3 1020.2 14.1  1.012 -99.9 -99.99 -9.99
2020/02/14 04:36 EST    1.21   1.63    3  303    4  42.6  45.3 1020.4 14.1  1.012 -99.9 -99.99 -9.99
2020/02/14 04:42 EST    1.22   1.63    3  273    4  42.4  45.3 1020.4 14.1  1.012 -99.9 -99.99 -9.99
2020/02/14 04:48 EST    1.23   1.63    4  272    4  42.3  45.3 1020.6 14.1  1.012 -99.9 -99.99 -9.99
2020/02/14 04:54 EST    1.24   1.63    4  267    5  42.4  45.3 1020.6 14.1  1.012 -99.9 -99.99 -9.99
2020/02/14 05:00 EST    1.24   1.62    4  242    4  41.7  45.5 1020.7 14.0  1.012 -99.9 -99.99 -9.99
2020/02/14 05:06 EST    1.25   1.61    4  240    5  41.5  45.5 1020.9 14.0  1.012 -99.9 -99.99 -9.99
2020/02/14 05:12 EST    1.25   1.60    4  243    5  41.4  45.5 1020.9 14.0  1.012 -99.9 -99.99 -9.99
2020/02/14 05:18 EST    1.25   1.59    3  250    4  41.4  45.5 1020.9 13.9  1.012 -99.9 -99.99 -9.99
2020/02/14 05:24 EST    1.25   1.58    3  254    4  41.4  45.5 1021.2 13.9  1.012 -99.9 -99.99 -9.99
2020/02/14 05:30 EST    1.25   1.57    3  238    3  40.8  45.5 1021.1 13.9  1.012 -99.9 -99.99 -9.99
2020/02/14 05:36 EST    1.25   1.56    4  234    4  40.6  45.5 1021.2 13.9  1.012 -99.9 -99.99 -9.99
2020/02/14 05:42 EST    1.24   1.55    3  243    3  40.5  45.5 1021.2 13.9  1.012 -99.9 -99.99 -9.99
2020/02/14 05:48 EST    1.23   1.54    3  253    3  40.5  45.5 1021.2 13.9  1.012 -99.9 -99.99 -9.99
2020/02/14 05:54 EST    1.22   1.54    3  247    3  40.3  45.5 1021.4 13.9  1.012 -99.9 -99.99 -9.99
2020/02/14 06:00 EST    1.21   1.53    4  263    5  40.6  45.5 1021.6 13.9  1.012 -99.9 -99.99 -9.99
2020/02/14 06:06 EST    1.20   1.52    4  261    5  40.6  45.5 1021.9 13.9  1.012 -99.9 -99.99 -9.99
2020/02/14 06:12 EST    1.19   1.50    4  277    4  40.6  45.5 1021.7 13.9  1.012 -99.9 -99.99 -9.99
2020/02/14 06:18 EST    1.17   1.48    3  282    4  40.5  45.3 1021.8 13.9  1.012 -99.9 -99.99 -9.99
2020/02/14 06:24 EST    1.15   1.47    4  265    5  40.5  45.3 1022.1 13.9  1.012 -99.9 -99.99 -9.99
2020/02/14 06:30 EST    1.13   1.44    4  269    5  40.3  45.3 1022.1 13.9  1.012 -99.9 -99.99 -9.99
2020/02/14 06:36 EST    1.11   1.41    3  292    5  40.1  45.3 1022.2 13.9  1.012 -99.9 -99.99 -9.99
2020/02/14 06:42 EST    1.09   1.40    4  289    4  39.9  45.3 1022.1 13.9  1.012 -99.9 -99.99 -9.99
2020/02/14 06:48 EST    1.07   1.38    4  283    5  39.9  45.3 1022.4 13.9  1.012 -99.9 -99.99 -9.99
2020/02/14 06:54 EST    1.04   1.35    4  275    5  39.9  45.3 1022.5 13.9  1.012 -99.9 -99.99 -9.99
2020/02/14 07:00 EST    1.01   1.32    4  288    4  39.7  45.3 1022.6 13.8  1.012 -99.9 -99.99 -9.99
2020/02/14 07:06 EST    0.99   1.29    3  288    4  39.9  45.1 1022.8 13.9  1.012 -99.9 -99.99 -9.99
2020/02/14 07:12 EST    0.96   1.27    3  290    4  39.9  45.1 1022.9 13.9  1.012 -99.9 -99.99 -9.99
2020/02/14 07:18 EST    0.93   1.26    4  281    4  40.1  45.3 1023.3 13.8  1.012 -99.9 -99.99 -9.99
2020/02/14 07:24 EST    0.89   1.23    4  273    5  39.9  45.3 1023.6 13.8  1.012 -99.9 -99.99 -9.99
2020/02/14 07:30 EST    0.86   1.19    3  302    4  39.6  45.3 1023.5 13.8  1.012 -99.9 -99.99 -9.99
2020/02/14 07:36 EST    0.83   1.17    4  326    4  39.7  45.1 1023.7 13.8  1.012 -99.9 -99.99 -9.99
2020/02/14 07:42 EST    0.79   1.15    4  333    5  39.9  45.3 1023.6 13.8  1.012 -99.9 -99.99 -9.99
2020/02/14 07:48 EST    0.76   1.12    4  338    7  39.9  45.3 1023.8 13.8  1.012 -99.9 -99.99 -9.99
2020/02/14 07:54 EST    0.72   1.09    5  319    6  40.3  45.3 1024.0 13.8  1.012 -99.9 -99.99 -9.99
2020/02/14 08:00 EST    0.69   1.06    5  312    7  40.6  45.3 1024.1 13.8  1.012 -99.9 -99.99 -9.99
2020/02/14 08:06 EST    0.65   1.03    4  304    5  40.5  45.3 1024.1 13.8  1.012 -99.9 -99.99 -9.99
2020/02/14 08:12 EST    0.62   1.00    5  323    6  40.6  45.3 1024.2 13.8  1.012 -99.9 -99.99 -9.99
2020/02/14 08:18 EST    0.58   0.97    4  322    5  40.6  45.3 1024.2 13.8  1.012 -99.9 -99.99 -9.99
2020/02/14 08:24 EST    0.54   0.95    4  326    5  40.6  45.3 1024.3 13.8  1.012 -99.9 -99.99 -9.99
2020/02/14 08:30 EST    0.51   0.93    9  360   13  41.5  45.3 1024.6 13.8  1.012 -99.9 -99.99 -9.99
2020/02/14 08:36 EST    0.47   0.91   11    0   17  41.4  45.3 1024.7 13.9  1.012 -99.9 -99.99 -9.99
2020/02/14 08:42 EST    0.43   0.89   12    5   17  41.2  45.3 1024.7 13.9  1.012 -99.9 -99.99 -9.99
2020/02/14 08:48 EST    0.40   0.85    9    5   12  41.2  45.3 1024.8 13.9  1.012 -99.9 -99.99 -9.99
2020/02/14 08:54 EST    0.36   0.83   10   12   14  41.2  45.3 1025.0 13.9  1.012 -99.9 -99.99 -9.99
2020/02/14 09:00 EST    0.33   0.80    8   10   11  41.0  45.3 1025.1 13.9  1.012 -99.9 -99.99 -9.99
2020/02/14 09:06 EST    0.30   0.77    8  355   11  41.2  45.3 1025.2 13.8  1.012 -99.9 -99.99 -9.99
2020/02/14 09:12 EST    0.26   0.75    8    1   11  41.2  45.1 1025.2 13.9  1.012 -99.9 -99.99 -9.99
2020/02/14 09:18 EST    0.23   0.72    9  351   13  41.4  45.1 1025.3 13.8  1.012 -99.9 -99.99 -9.99
2020/02/14 09:24 EST    0.20   0.69    7    0   11  41.2  45.1 1025.4 13.8  1.012 -99.9 -99.99 -9.99
2020/02/14 09:30 EST    0.17   0.66    9  355   12  41.2  45.1 1025.5 13.8  1.012 -99.9 -99.99 -9.99
2020/02/14 09:36 EST    0.14   0.64    6    1   11  41.2  45.3 1025.4 13.8  1.012 -99.9 -99.99 -9.99
2020/02/14 09:42 EST    0.11   0.63    7   17    9  41.4  45.1 1025.5 13.9  1.012 -99.9 -99.99 -9.99
2020/02/14 09:48 EST    0.08   0.62    9   10   11  41.4  45.1 1025.5 13.8  1.012 -99.9 -99.99 -9.99
2020/02/14 09:54 EST    0.05   0.62    7    3   11  41.5  45.0 1025.6 13.8  1.012 -99.9 -99.99 -9.99
2020/02/14 10:00 EST    0.02   0.60    8    4   12  41.4  45.0 1025.6 13.8  1.012 -99.9 -99.99 -9.99
2020/02/14 10:06 EST   -0.00   0.58   10    1   13  41.5  45.1 1025.6 13.9  1.012 -99.9 -99.99 -9.99
2020/02/14 10:12 EST   -0.03   0.58   10    2   14  41.2  45.1 1025.6 13.9  1.012 -99.9 -99.99 -9.99
2020/02/14 10:18 EST   -0.05   0.56    9   19   12  41.4  45.1 1025.6 13.9  1.012 -99.9 -99.99 -9.99
2020/02/14 10:24 EST   -0.07   0.57    9   20   14  40.6  45.3 1025.7 13.9  1.012 -99.9 -99.99 -9.99
2020/02/14 10:30 EST   -0.09   0.56    7   25   10  40.5  45.3 1025.7 13.9  1.012 -99.9 -99.99 -9.99
2020/02/14 10:36 EST   -0.11   0.53    8   19   12  40.8  45.3 1025.8 13.9  1.012 -99.9 -99.99 -9.99
2020/02/14 10:42 EST   -0.13   0.51    6   32    9  41.7  45.3 1025.8 13.9  1.012 -99.9 -99.99 -9.99
2020/02/14 10:48 EST   -0.15   0.51   10  346   14  41.2  45.3 1026.0 13.9  1.012 -99.9 -99.99 -9.99
2020/02/14 10:54 EST   -0.16   0.50   11  345   15  40.8  45.1 1026.0 14.0  1.012 -99.9 -99.99 -9.99
2020/02/14 11:00 EST   -0.18   0.49    9    3   12  40.8  45.1 1026.0 14.0  1.012 -99.9 -99.99 -9.99
2020/02/14 11:06 EST   -0.19   0.49    9  357   11  40.6  45.1 1026.0 14.0  1.012 -99.9 -99.99 -9.99
2020/02/14 11:12 EST   -0.20   0.47    8  358   10  40.8  45.1 1026.1 14.0  1.012 -99.9 -99.99 -9.99
2020/02/14 11:18 EST   -0.21   0.45   12  348   15  41.0  45.1 1026.1 14.0  1.012 -99.9 -99.99 -9.99
2020/02/14 11:24 EST   -0.22   0.43   12  344   20  40.8  45.1 1026.2 14.0  1.012 -99.9 -99.99 -9.99
2020/02/14 11:30 EST   -0.22   0.41   13  355   19  40.1  45.1 1026.3 14.0  1.012 -99.9 -99.99 -9.99
2020/02/14 11:36 EST   -0.22   0.38   11  351   15  40.3  45.1 1026.3 14.0  1.012 -99.9 -99.99 -9.99
2020/02/14 11:42 EST   -0.23   0.36   14  348   20  40.1  45.0 1026.4 14.0  1.012 -99.9 -99.99 -9.99
2020/02/14 11:48 EST   -0.23   0.37   14  357   19  40.5  45.1 1026.3 14.0  1.012 -99.9 -99.99 -9.99
2020/02/14 11:54 EST   -0.22   0.36   16  325   20  39.9  45.1 1026.5 14.0  1.012 -99.9 -99.99 -9.99
2020/02/14 12:00 EST   -0.22   0.34   15  335   19  39.9  45.1 1026.6 14.0  1.012 -99.9 -99.99 -9.99
2020/02/14 12:06 EST   -0.21   0.33   11  346   16  40.3  45.1 1026.5 14.0  1.012 -99.9 -99.99 -9.99
2020/02/14 12:12 EST   -0.21   0.32    9  349   11  40.1  45.3 1026.5 14.0  1.012 -99.9 -99.99 -9.99
2020/02/14 12:18 EST   -0.20   0.32   10  344   14  40.3  45.3 1026.5 14.0  1.012 -99.9 -99.99 -9.99
2020/02/14 12:24 EST   -0.19   0.31   12  337   17  40.1  45.5 1026.6 13.9  1.012 -99.9 -99.99 -9.99
2020/02/14 12:30 EST   -0.17   0.32    9  338   17  40.5  45.5 1026.5 13.9  1.012 -99.9 -99.99 -9.99
2020/02/14 12:36 EST   -0.16   0.34   12  336   16  40.3  45.7 1026.5 13.9  1.012 -99.9 -99.99 -9.99
2020/02/14 12:42 EST   -0.14   0.37   15  328   20  40.1  45.9 1026.6 13.9  1.012 -99.9 -99.99 -9.99
2020/02/14 12:48 EST   -0.12   0.41   13  343   19  40.5  45.9 1026.6 13.9  1.012 -99.9 -99.99 -9.99
2020/02/14 12:54 EST   -0.10   0.45   13  343   20  39.9  46.0 1026.6 13.9  1.012 -99.9 -99.99 -9.99
2020/02/14 13:00 EST   -0.08   0.46   12  346   17  39.9  46.0 1026.7 13.9  1.012 -99.9 -99.99 -9.99
2020/02/14 13:06 EST   -0.05   0.50   13  350   17  40.1  46.0 1026.6 13.9  1.012 -99.9 -99.99 -9.99
2020/02/14 13:12 EST   -0.03   0.53   13  352   17  40.3  46.0 1026.5 13.8  1.012 -99.9 -99.99 -9.99
2020/02/14 13:18 EST    0.00   0.56   13  352   19  40.3  46.0 1026.6 13.8  1.012 -99.9 -99.99 -9.99
2020/02/14 13:24 EST    0.03   0.59   12  358   15  39.9  46.0 1026.7 13.8  1.012 -99.9 -99.99 -9.99
2020/02/14 13:30 EST    0.06   0.64   11    1   15  39.9  46.0 1026.7 13.9  1.012 -99.9 -99.99 -9.99
2020/02/14 13:36 EST    0.09   0.67   12  350   20  39.9  46.0 1026.7 13.9  1.012 -99.9 -99.99 -9.99
2020/02/14 13:42 EST    0.12   0.71    8  357   13  39.7  46.0 1026.7 13.8  1.012 -99.9 -99.99 -9.99
2020/02/14 13:48 EST    0.15   0.73    8  346   11  40.1  45.9 1026.7 13.9  1.012 -99.9 -99.99 -9.99
2020/02/14 13:54 EST    0.19   0.75   10  335   15  40.5  45.9 1026.8 13.9  1.012 -99.9 -99.99 -9.99
2020/02/14 14:00 EST    0.22   0.77   11  338   15  40.5  45.9 1026.9 13.9  1.012 -99.9 -99.99 -9.99
2020/02/14 14:06 EST    0.25   0.80    9  343   12  39.9  45.9 1026.9 13.9  1.012 -99.9 -99.99 -9.99
2020/02/14 14:12 EST    0.29   0.83   13  333   17  40.1  45.9 1027.1 13.9  1.012 -99.9 -99.99 -9.99
2020/02/14 14:18 EST    0.32   0.88   13  328   18  39.9  45.9 1027.1 13.9  1.012 -99.9 -99.99 -9.99
2020/02/14 14:24 EST    0.36   0.92   11  347   17  39.7  45.9 1027.2 13.9  1.012 -99.9 -99.99 -9.99
2020/02/14 14:30 EST    0.39   0.92   13  351   20  39.9  46.0 1027.2 13.9  1.012 -99.9 -99.99 -9.99
2020/02/14 14:36 EST    0.42   0.95   11  353   16  39.7  46.0 1027.2 13.9  1.012 -99.9 -99.99 -9.99
2020/02/14 14:42 EST    0.46   0.97   11  347   15  40.1  46.0 1027.3 13.9  1.012 -99.9 -99.99 -9.99
2020/02/14 14:48 EST    0.49   0.99   13  348   17  39.9  45.9 1027.4 13.9  1.012 -99.9 -99.99 -9.99
2020/02/14 14:54 EST    0.53   1.02   11  339   15  40.3  45.9 1027.3 13.9  1.012 -99.9 -99.99 -9.99
2020/02/14 15:00 EST    0.56   1.03    9  343   12  39.6  45.9 1027.4 14.0  1.012 -99.9 -99.99 -9.99
2020/02/14 15:06 EST    0.59   1.05   10  357   18  39.7  45.9 1027.4 14.0  1.012 -99.9 -99.99 -9.99
2020/02/14 15:12 EST    0.62   1.08   13  353   17  39.7  46.0 1027.5 14.0  1.012 -99.9 -99.99 -9.99
2020/02/14 15:18 EST    0.65   1.09   12  347   17  40.3  46.0 1027.6 13.9  1.012 -99.9 -99.99 -9.99
2020/02/14 15:24 EST    0.68   1.11   12  352   20  40.1  45.9 1027.7 13.9  1.012 -99.9 -99.99 -9.99
2020/02/14 15:30 EST    0.71   1.15   12  351   19  39.9  45.9 1027.8 13.9  1.012 -99.9 -99.99 -9.99
2020/02/14 15:36 EST    0.74   1.16   13  337   17  39.7  45.9 1027.8 13.9  1.012 -99.9 -99.99 -9.99
2020/02/14 15:42 EST    0.76   1.18   13  330   16  40.1  46.0 1027.9 13.9  1.012 -99.9 -99.99 -9.99
2020/02/14 15:48 EST    0.79   1.19   11  341   17  39.9  46.0 1028.0 13.9  1.012 -99.9 -99.99 -9.99
2020/02/14 15:54 EST    0.81   1.20   12  348   16  39.7  46.0 1028.1 13.9  1.012 -99.9 -99.99 -9.99
2020/02/14 16:00 EST    0.84   1.25   12  346   16  39.4  46.0 1028.1 13.9  1.012 -99.9 -99.99 -9.99
2020/02/14 16:06 EST    0.86   1.28   10  358   15  39.6  46.0 1028.1 13.9  1.012 -99.9 -99.99 -9.99
2020/02/14 16:12 EST    0.88   1.29   11  358   17  39.7  45.9 1028.2 13.9  1.012 -99.9 -99.99 -9.99
2020/02/14 16:18 EST    0.90   1.31   10  349   13  39.6  45.9 1028.3 13.9  1.012 -99.9 -99.99 -9.99
2020/02/14 16:24 EST    0.92   1.34   10    9   14  39.6  45.9 1028.3 13.9  1.012 -99.9 -99.99 -9.99
2020/02/14 16:30 EST    0.93   1.34   11  349   17  39.6  45.9 1028.5 13.9  1.012 -99.9 -99.99 -9.99
2020/02/14 16:36 EST    0.95   1.35   12  344   17  39.2  45.9 1028.6 13.9  1.012 -99.9 -99.99 -9.99
2020/02/14 16:42 EST    0.97   1.36    8  356   14  39.4  45.9 1028.6 13.9  1.012 -99.9 -99.99 -9.99
2020/02/14 16:48 EST    0.98   1.37   13    7   18  39.0  45.9 1028.6 13.9  1.012 -99.9 -99.99 -9.99
2020/02/14 16:54 EST    0.99   1.37   10    5   13  39.0  45.9 1028.7 13.9  1.012 -99.9 -99.99 -9.99
2020/02/14 17:00 EST    1.00   1.38   12  358   17  38.7  45.9 1028.8 13.9  1.012 -99.9 -99.99 -9.99
2020/02/14 17:06 EST    1.01   1.36    9    8   14  38.5  45.9 1028.8 13.9  1.012 -99.9 -99.99 -9.99
2020/02/14 17:12 EST    1.02   1.37   12    0   17  38.5  45.9 1028.9 13.9  1.012 -99.9 -99.99 -9.99
2020/02/14 17:18 EST    1.03   1.38   10    2   15  38.3  45.9 1029.0 13.9  1.012 -99.9 -99.99 -9.99
2020/02/14 17:24 EST    1.03   1.38   10  348   15  38.1  45.7 1029.2 13.9  1.012 -99.9 -99.99 -9.99
2020/02/14 17:30 EST    1.04   1.38   11  345   15  37.9  45.7 1029.2 13.9  1.012 -99.9 -99.99 -9.99
2020/02/14 17:36 EST    1.04   1.39   11   11   17  37.6  45.7 1029.3 13.9  1.012 -99.9 -99.99 -9.99
2020/02/14 17:42 EST    1.04   1.38   11    2   16  37.2  45.7 1029.4 13.9  1.012 -99.9 -99.99 -9.99
2020/02/14 17:48 EST    1.04   1.37   13   17   18  36.7  45.5 1029.6 13.9  1.012 -99.9 -99.99 -9.99
2020/02/14 17:54 EST    1.04   1.36   11   14   16  36.5  45.3 1029.8 13.8  1.012 -99.9 -99.99 -9.99
2020/02/14 18:00 EST    1.04   1.34   10   25   15  36.3  45.3 1029.9 13.8  1.012 -99.9 -99.99 -9.99
2020/02/14 18:06 EST    1.03   1.32   13   20   18  36.0  45.3 1030.0 13.8  1.012 -99.9 -99.99 -9.99
2020/02/14 18:12 EST    1.03   1.33   12   16   17  36.0  45.3 1030.3 13.8  1.012 -99.9 -99.99 -9.99
2020/02/14 18:18 EST    1.02   1.29   12   16   17  35.8  45.3 1030.4 13.8  1.012 -99.9 -99.99 -9.99
2020/02/14 18:24 EST    1.01   1.27   13    8   20  35.6  45.3 1030.6 13.8  1.012 -99.9 -99.99 -9.99
2020/02/14 18:30 EST    1.00   1.25   12   20   18  35.4  45.1 1030.7 13.8  1.012 -99.9 -99.99 -9.99
2020/02/14 18:36 EST    0.98   1.23   12   14   17  35.2  45.3 1030.9 13.8  1.012 -99.9 -99.99 -9.99
2020/02/14 18:42 EST    0.97   1.21   11   12   18  35.2  45.1 1031.0 13.8  1.012 -99.9 -99.99 -9.99
2020/02/14 18:48 EST    0.95   1.18   12   11   16  35.1  45.1 1031.1 13.8  1.012 -99.9 -99.99 -9.99
2020/02/14 18:54 EST    0.93   1.14    9   11   15  35.1  45.1 1031.3 13.8  1.012 -99.9 -99.99 -9.99
2020/02/14 19:00 EST    0.92   1.10   12   14   19  34.9  45.1 1031.5 13.8  1.012 -99.9 -99.99 -9.99
2020/02/14 19:06 EST    0.90   1.08   14   14   23  34.7  45.1 1031.6 13.8  1.012 -99.9 -99.99 -9.99
2020/02/14 19:12 EST    0.87   1.06   13   13   18  34.5  45.1 1031.8 13.8  1.012 -99.9 -99.99 -9.99
2020/02/14 19:18 EST    0.85   1.03   16    4   24  34.3  45.0 1031.8 13.8  1.012 -99.9 -99.99 -9.99
2020/02/14 19:24 EST    0.83   1.02   13    6   17  34.2  45.0 1031.9 13.8  1.012 -99.9 -99.99 -9.99
2020/02/14 19:30 EST    0.80   0.99   12    6   16  34.2  45.1 1032.1 13.8  1.012 -99.9 -99.99 -9.99
2020/02/14 19:36 EST    0.77   0.96   11   12   16  34.0  45.1 1032.2 13.8  1.012 -99.9 -99.99 -9.99
2020/02/14 19:42 EST    0.74   0.92   13   16   17  34.0  45.1 1032.4 13.8  1.012 -99.9 -99.99 -9.99
2020/02/14 19:48 EST    0.72   0.91   11   26   21  33.6  45.1 1032.4 13.8  1.012 -99.9 -99.99 -9.99
2020/02/14 19:54 EST    0.69   0.89   12   12   17  33.4  45.1 1032.7 13.8  1.012 -99.9 -99.99 -9.99
2020/02/14 20:00 EST    0.66   0.86   11   17   19  33.3  45.1 1032.9 13.8  1.012 -99.9 -99.99 -9.99
2020/02/14 20:06 EST    0.62   0.84   14    5   22  33.1  45.1 1033.1 13.8  1.012 -99.9 -99.99 -9.99
2020/02/14 20:12 EST    0.59   0.82   12   11   17  32.9  45.1 1033.1 13.8  1.012 -99.9 -99.99 -9.99
2020/02/14 20:18 EST    0.56   0.76   11   16   16  32.9  45.0 1033.1 13.9  1.012 -99.9 -99.99 -9.99
2020/02/14 20:24 EST    0.53   0.73   13   10   17  32.5  45.0 1033.3 13.9  1.012 -99.9 -99.99 -9.99
2020/02/14 20:30 EST    0.50   0.71    9    7   15  32.5  45.0 1033.4 13.8  1.012 -99.9 -99.99 -9.99
2020/02/14 20:36 EST    0.46   0.69   11   10   18  32.5  45.0 1033.6 13.8  1.012 -99.9 -99.99 -9.99
2020/02/14 20:42 EST    0.43   0.65   10    4   15  32.4  45.0 1033.6 13.8  1.012 -99.9 -99.99 -9.99
2020/02/14 20:48 EST    0.40   0.62   11   14   19  32.4  45.0 1033.8 13.8  1.012 -99.9 -99.99 -9.99
2020/02/14 20:54 EST    0.36   0.61   11   11   16  32.0  44.8 1033.9 13.9  1.012 -99.9 -99.99 -9.99
2020/02/14 21:00 EST    0.33   0.57   14   11   19  32.0  44.8 1034.0 13.8  1.012 -99.9 -99.99 -9.99
2020/02/14 21:06 EST    0.30   0.54   11    9   17  32.0  44.8 1034.0 13.8  1.012 -99.9 -99.99 -9.99
2020/02/14 21:12 EST    0.27   0.52    9    3   14  32.2  44.6 1034.1 13.8  1.012 -99.9 -99.99 -9.99
2020/02/14 21:18 EST    0.24   0.51   12    6   17  31.8  44.4 1034.1 13.8  1.012 -99.9 -99.99 -9.99
2020/02/14 21:24 EST    0.20   0.49   12    3   19  31.8  44.4 1034.2 13.8  1.012 -99.9 -99.99 -9.99
2020/02/14 21:30 EST    0.17   0.48   12  354   18  31.6  44.4 1034.4 13.8  1.012 -99.9 -99.99 -9.99
2020/02/14 21:36 EST    0.14   0.45   11    3   18  31.6  44.4 1034.4 13.8  1.012 -99.9 -99.99 -9.99
2020/02/14 21:42 EST    0.11   0.43   12  356   19  31.6  44.4 1034.5 13.8  1.012 -99.9 -99.99 -9.99
2020/02/14 21:48 EST    0.09   0.41   13    6   18  31.5  44.2 1034.6 13.9  1.012 -99.9 -99.99 -9.99
2020/02/14 21:54 EST    0.06   0.39   12    4   18  31.5  44.2 1034.7 13.9  1.012 -99.9 -99.99 -9.99
2020/02/14 22:00 EST    0.03   0.36   11    1   18  31.1  44.2 1034.7 13.8  1.012 -99.9 -99.99 -9.99
2020/02/14 22:06 EST    0.01   0.34   12  358   17  31.3  44.2 1034.8 13.8  1.012 -99.9 -99.99 -9.99
2020/02/14 22:12 EST   -0.02   0.32   12  359   18  31.1  44.2 1035.0 13.9  1.012 -99.9 -99.99 -9.99
2020/02/14 22:18 EST   -0.04   0.30   13  356   19  31.1  44.4 1035.1 13.9  1.012 -99.9 -99.99 -9.99
2020/02/14 22:24 EST   -0.07   0.27   10    0   14  31.1  44.4 1035.2 13.9  1.012 -99.9 -99.99 -9.99
2020/02/14 22:30 EST   -0.09   0.24    9    8   14  31.1  44.6 1035.3 13.9  1.012 -99.9 -99.99 -9.99
2020/02/14 22:36 EST   -0.11   0.22   14  357   21  31.1  44.6 1035.3 13.9  1.012 -99.9 -99.99 -9.99
2020/02/14 22:42 EST   -0.13   0.20   12    2   17  30.9  44.6 1035.4 13.9  1.012 -99.9 -99.99 -9.99
2020/02/14 22:48 EST   -0.15   0.18   11    1   16  30.9  44.6 1035.4 13.9  1.012 -99.9 -99.99 -9.99
2020/02/14 22:54 EST   -0.17   0.16    9    0   16  30.9  44.6 1035.4 13.9  1.012 -99.9 -99.99 -9.99
2020/02/14 23:00 EST   -0.18   0.14    9   11   16  30.7  44.6 1035.5 13.9  1.012 -99.9 -99.99 -9.99
2020/02/14 23:06 EST   -0.20   0.13   11    1   15  30.7  44.6 1035.5 13.9  1.012 -99.9 -99.99 -9.99
2020/02/14 23:12 EST   -0.21   0.11   11    4   17  30.7  44.4 1035.6 13.9  1.012 -99.9 -99.99 -9.99
2020/02/14 23:18 EST   -0.22   0.10   10    7   13  30.6  44.4 1035.6 13.9  1.012 -99.9 -99.99 -9.99
2020/02/14 23:24 EST   -0.23   0.10   10    2   15  30.6  44.4 1035.7 13.9  1.012 -99.9 -99.99 -9.99
2020/02/14 23:30 EST   -0.24   0.09   10   11   16  30.4  44.4 1035.8 13.9  1.012 -99.9 -99.99 -9.99
2020/02/14 23:36 EST   -0.25   0.08   11  358   16  30.4  44.4 1035.8 13.9  1.012 -99.9 -99.99 -9.99
2020/02/14 23:42 EST   -0.25   0.07    9    9   13  30.4  44.4 1035.9 13.9  1.012 -99.9 -99.99 -9.99
2020/02/14 23:48 EST   -0.26   0.07    9    8   13  30.4  44.2 1035.8 13.9  1.012 -99.9 -99.99 -9.99
2020/02/14 23:54 EST   -0.26   0.06   10   11   15  30.2  44.2 1035.8 13.9  1.012 -99.9 -99.99 -9.99
2020/02/15 00:00 EST   -0.26   0.04   11   13   14  30.0  44.2 1035.8 13.9  1.012 -99.9 -99.99 -9.99
2020/02/15 00:06 EST   -0.26   0.04    9    7   13  30.0  44.2 1035.8 13.9  1.012 -99.9 -99.99 -9.99
2020/02/15 00:12 EST   -0.26   0.04    9   15   12  30.0  44.2 1035.9 13.9  1.012 -99.9 -99.99 -9.99
2020/02/15 00:18 EST   -0.25   0.04   11   18   16  29.8  44.2 1035.9 13.9  1.012 -99.9 -99.99 -9.99
2020/02/15 00:24 EST   -0.24   0.03    8    2   11  29.8  44.2 1035.9 13.9  1.012 -99.9 -99.99 -9.99
2020/02/15 00:30 EST   -0.24   0.03    8    8   13  29.8  44.2 1035.9 13.9  1.012 -99.9 -99.99 -9.99
2020/02/15 00:36 EST   -0.22   0.03    9  359   14  29.7  44.1 1035.8 13.9  1.012 -99.9 -99.99 -9.99
2020/02/15 00:42 EST   -0.21   0.02   10    9   13  29.7  44.1 1035.9 13.9  1.012 -99.9 -99.99 -9.99
2020/02/15 00:48 EST   -0.20   0.04   10  358   14  29.7  44.2 1035.9 13.9  1.012 -99.9 -99.99 -9.99
2020/02/15 00:54 EST   -0.18   0.05    9  360   13  29.7  44.1 1035.9 13.9  1.012 -99.9 -99.99 -9.99
2020/02/15 01:00 EST   -0.16   0.06    8    4   12  29.5  44.1 1035.9 13.9  1.012 -99.9 -99.99 -9.99
2020/02/15 01:06 EST   -0.14   0.07    8  359   13  29.5  44.1 1035.9 13.9  1.012 -99.9 -99.99 -9.99
2020/02/15 01:12 EST   -0.12   0.08    9    4   11  29.5  44.1 1036.1 13.9  1.012 -99.9 -99.99 -9.99
2020/02/15 01:18 EST   -0.10   0.10    9   16   13  29.3  44.1 1036.0 13.9  1.012 -99.9 -99.99 -9.99
2020/02/15 01:24 EST   -0.07   0.11    9    8   13  29.3  43.9 1036.0 13.9  1.012 -99.9 -99.99 -9.99
2020/02/15 01:30 EST   -0.04   0.13    8   17   11  29.3  43.9 1036.0 13.9  1.012 -99.9 -99.99 -9.99
2020/02/15 01:36 EST   -0.02   0.16    8    9   12  29.3  43.9 1036.0 13.9  1.012 -99.9 -99.99 -9.99
2020/02/15 01:42 EST    0.02   0.19    8   18   12  29.3  43.7 1036.0 13.9  1.012 -99.9 -99.99 -9.99
2020/02/15 01:48 EST    0.05   0.22    9    9   13  29.3  43.5 1036.2 13.9  1.012 -99.9 -99.99 -9.99
2020/02/15 01:54 EST    0.08   0.26    9   15   14  29.1  43.5 1036.1 13.9  1.012 -99.9 -99.99 -9.99
2020/02/15 02:00 EST    0.11   0.29   11   13   14  28.9  43.7 1036.1 13.9  1.012 -99.9 -99.99 -9.99
2020/02/15 02:06 EST    0.15   0.31    7   11   11  28.9  43.5 1036.1 13.9  1.012 -99.9 -99.99 -9.99
2020/02/15 02:12 EST    0.18   0.34    7   23   12  28.8  43.5 1036.0 13.9  1.012 -99.9 -99.99 -9.99
2020/02/15 02:18 EST    0.22   0.39    6   16    9  28.8  43.5 1036.0 13.9  1.012 -99.9 -99.99 -9.99
2020/02/15 02:24 EST    0.26   0.41    7   11   10  28.8  43.5 1036.1 13.9  1.012 -99.9 -99.99 -9.99
2020/02/15 02:30 EST    0.29   0.45    8   14   12  28.6  43.5 1036.1 13.9  1.012 -99.9 -99.99 -9.99
2020/02/15 02:36 EST    0.33   0.49    9    5   12  28.6  43.5 1036.2 13.9  1.012 -99.9 -99.99 -9.99
2020/02/15 02:42 EST    0.37   0.52    7    8    9  28.8  43.5 1036.2 13.9  1.012 -99.9 -99.99 -9.99
2020/02/15 02:48 EST    0.41   0.55    6    8    9  28.6  43.7 1036.1 13.9  1.012 -99.9 -99.99 -9.99
2020/02/15 02:54 EST    0.44   0.59    6   21    9  28.6  43.7 1036.2 13.8  1.012 -99.9 -99.99 -9.99
2020/02/15 03:00 EST    0.48   0.63    7   30   11  28.4  43.5 1036.1 13.9  1.012 -99.9 -99.99 -9.99
2020/02/15 03:06 EST    0.52   0.67    6   24   10  28.6  43.5 1036.3 13.8  1.012 -99.9 -99.99 -9.99
2020/02/15 03:12 EST    0.56   0.70    7   36   11  28.8  43.5 1036.4 13.8  1.012 -99.9 -99.99 -9.99
2020/02/15 03:18 EST    0.59   0.74    6   24    9  28.8  43.5 1036.5 13.8  1.012 -99.9 -99.99 -9.99
2020/02/15 03:24 EST    0.63   0.77    7   29   11  28.6  43.5 1036.5 13.8  1.012 -99.9 -99.99 -9.99
2020/02/15 03:30 EST    0.66   0.80    6   26    9  28.6  43.5 1036.4 13.8  1.012 -99.9 -99.99 -9.99
2020/02/15 03:36 EST    0.70   0.83    7   52   11  28.6  43.5 1036.4 13.8  1.012 -99.9 -99.99 -9.99
2020/02/15 03:42 EST    0.73   0.85    7   31   10  28.4  43.5 1036.4 13.8  1.012 -99.9 -99.99 -9.99
2020/02/15 03:48 EST    0.77   0.88    7   58   11  28.6  43.3 1036.2 13.8  1.012 -99.9 -99.99 -9.99
2020/02/15 03:54 EST    0.80   0.92    7   55   11  28.6  43.3 1036.4 13.8  1.012 -99.9 -99.99 -9.99
2020/02/15 04:00 EST    0.83   0.94    7   58   11  28.6  43.5 1036.3 13.8  1.012 -99.9 -99.99 -9.99
2020/02/15 04:06 EST    0.86   0.96    7   49   11  28.4  43.5 1036.4 13.8  1.012 -99.9 -99.99 -9.99
2020/02/15 04:12 EST    0.89   0.99    7   50   11  28.4  43.5 1036.4 13.8  1.012 -99.9 -99.99 -9.99
2020/02/15 04:18 EST    0.92   1.00    6   45    9  28.4  43.5 1036.4 13.8  1.012 -99.9 -99.99 -9.99
2020/02/15 04:24 EST    0.94   1.03    5   45   10  28.4  43.5 1036.4 13.8  1.012 -99.9 -99.99 -9.99
2020/02/15 04:30 EST    0.97   1.05    7   52   10  28.2  43.5 1036.3 13.8  1.012 -99.9 -99.99 -9.99
2020/02/15 04:36 EST    1.00   1.07    8   67   11  28.2  43.7 1036.3 13.8  1.012 -99.9 -99.99 -9.99
2020/02/15 04:42 EST    1.02   1.10    8   64   14  28.2  43.5 1036.3 13.8  1.012 -99.9 -99.99 -9.99
2020/02/15 04:48 EST    1.04   1.12   10   75   14  28.0  43.5 1036.5 13.8  1.012 -99.9 -99.99 -9.99
2020/02/15 04:54 EST    1.06   1.14    9   77   12  28.0  43.5 1036.5 13.8  1.012 -99.9 -99.99 -9.99
2020/02/15 05:00 EST    1.08   1.15    7   53   11  28.0  43.3 1036.6 13.8  1.012 -99.9 -99.99 -9.99
2020/02/15 05:06 EST    1.10   1.16    6   59   10  27.9  43.0 1036.6 13.8  1.012 -99.9 -99.99 -9.99
2020/02/15 05:12 EST    1.12   1.18   10   62   14  27.9  43.3 1036.7 13.8  1.012 -99.9 -99.99 -9.99
2020/02/15 05:18 EST    1.14   1.20    6   50   12  27.9  43.3 1036.7 13.8  1.012 -99.9 -99.99 -9.99
2020/02/15 05:24 EST    1.15   1.22    9   79   12  27.9  43.5 1036.7 13.8  1.012 -99.9 -99.99 -9.99
2020/02/15 05:30 EST    1.17   1.23   10   70   14  27.7  43.3 1036.8 13.8  1.012 -99.9 -99.99 -9.99
2020/02/15 05:36 EST    1.18   1.24    7   57   12  27.7  43.0 1036.7 13.7  1.012 -99.9 -99.99 -9.99
2020/02/15 05:42 EST    1.19   1.25    9   64   13  27.9  43.0 1036.6 13.8  1.012 -99.9 -99.99 -9.99
2020/02/15 05:48 EST    1.20   1.26   11   68   14  27.9  43.0 1036.6 13.8  1.012 -99.9 -99.99 -9.99
2020/02/15 05:54 EST    1.21   1.27   10   72   14  27.7  43.0 1036.7 13.8  1.012 -99.9 -99.99 -9.99
2020/02/15 06:00 EST    1.21   1.28    9   56   15  27.5  43.0 1036.7 13.8  1.012 -99.9 -99.99 -9.99
2020/02/15 06:06 EST    1.22   1.29   10   81   12  27.7  42.8 1036.8 13.8  1.012 -99.9 -99.99 -9.99
2020/02/15 06:12 EST    1.22   1.30    9   61   14  27.7  42.8 1036.9 13.8  1.012 -99.9 -99.99 -9.99
2020/02/15 06:18 EST    1.22   1.31    8   61   13  27.7  42.8 1037.0 13.8  1.012 -99.9 -99.99 -9.99
2020/02/15 06:24 EST    1.22   1.31   10   65   15  27.5  42.8 1037.0 13.8  1.012 -99.9 -99.99 -9.99
2020/02/15 06:30 EST    1.22   1.32    8   59   13  27.3  42.8 1037.0 13.8  1.012 -99.9 -99.99 -9.99
2020/02/15 06:36 EST    1.22   1.33    9   65   12  27.7  42.6 1037.1 13.8  1.012 -99.9 -99.99 -9.99
2020/02/15 06:42 EST    1.21   1.32    8   53   11  27.1  42.6 1037.1 13.8  1.012 -99.9 -99.99 -9.99
2020/02/15 06:48 EST    1.21   1.32    7   52   12  27.5  42.6 1037.2 13.8  1.012 -99.9 -99.99 -9.99
2020/02/15 06:54 EST    1.20   1.31   10   66   14  27.3  42.1 1037.1 13.7  1.012 -99.9 -99.99 -9.99
2020/02/15 07:00 EST    1.19   1.30   10   69   14  27.3  41.9 1037.1 13.7  1.012 -99.9 -99.99 -9.99
2020/02/15 07:06 EST    1.18   1.30   11   76   15  27.1  41.7 1037.2 13.7  1.012 -99.9 -99.99 -9.99
2020/02/15 07:12 EST    1.17   1.29   10   64   15  27.5  41.7 1037.5 13.7  1.012 -99.9 -99.99 -9.99
2020/02/15 07:18 EST    1.15   1.28    7   61   12  27.3  41.9 1037.7 13.7  1.012 -99.9 -99.99 -9.99
2020/02/15 07:24 EST    1.14   1.27    9   65   12  27.3  41.9 1037.8 13.7  1.012 -99.9 -99.99 -9.99
2020/02/15 07:30 EST    1.12   1.25   10   81   12  27.5  41.9 1037.7 13.7  1.012 -99.9 -99.99 -9.99
2020/02/15 07:36 EST    1.10   1.23    9   75   12  27.3  41.9 1037.9 13.7  1.012 -99.9 -99.99 -9.99
2020/02/15 07:42 EST    1.08   1.22    9   75   14  27.5  41.9 1038.0 13.7  1.012 -99.9 -99.99 -9.99
2020/02/15 07:48 EST    1.05   1.20    9   73   11  27.5  41.9 1038.0 13.7  1.012 -99.9 -99.99 -9.99
2020/02/15 07:54 EST    1.03   1.18   10   72   12  27.5  41.9 1038.1 13.7  1.012 -99.9 -99.99 -9.99
2020/02/15 08:00 EST    1.01   1.16   10   63   13  27.3  42.1 1037.9 13.7  1.012 -99.9 -99.99 -9.99
2020/02/15 08:06 EST    0.98   1.14   10   70   14  27.3  42.1 1038.1 13.7  1.012 -99.9 -99.99 -9.99
2020/02/15 08:12 EST    0.95   1.12    8   70   11  27.7  42.1 1038.2 13.7  1.012 -99.9 -99.99 -9.99
2020/02/15 08:18 EST    0.92   1.09    6   83   11  27.7  42.1 1038.3 13.8  1.012 -99.9 -99.99 -9.99
2020/02/15 08:24 EST    0.89   1.07    9   68   13  27.5  42.1 1038.6 13.8  1.012 -99.9 -99.99 -9.99
2020/02/15 08:30 EST    0.86   1.04    7   58   11  27.7  42.3 1038.7 13.7  1.012 -99.9 -99.99 -9.99
2020/02/15 08:36 EST    0.83   1.01    6   69   11  27.9  42.1 1038.9 13.7  1.012 -99.9 -99.99 -9.99
2020/02/15 08:42 EST    0.80   0.97    6   75   10  27.7  42.1 1039.0 13.8  1.012 -99.9 -99.99 -9.99
2020/02/15 08:48 EST    0.77   0.94    5   55    7  28.0  42.1 1038.9 13.7  1.012 -99.9 -99.99 -9.99
2020/02/15 08:54 EST    0.74   0.91    8   76   11  27.7  42.1 1038.5 13.7  1.012 -99.9 -99.99 -9.99
2020/02/15 09:00 EST    0.70   0.88    8   72   11  27.9  41.9 1038.5 13.7  1.012 -99.9 -99.99 -9.99
2020/02/15 09:06 EST    0.67   0.86    7   70   10  27.9  42.1 1038.8 13.7  1.012 -99.9 -99.99 -9.99
2020/02/15 09:12 EST    0.64   0.82    6   76   10  27.7  42.3 1038.8 13.8  1.012 -99.9 -99.99 -9.99
2020/02/15 09:18 EST    0.60   0.79    6   44    9  28.0  42.3 1038.9 13.8  1.012 -99.9 -99.99 -9.99
2020/02/15 09:24 EST    0.57   0.75    5   40    7  28.2  42.3 1039.0 13.8  1.012 -99.9 -99.99 -9.99
2020/02/15 09:30 EST    0.54   0.73    4   70    7  28.0  42.3 1039.1 13.8  1.012 -99.9 -99.99 -9.99
2020/02/15 09:36 EST    0.50   0.69    5   60    8  28.0  42.1 1039.0 13.8  1.012 -99.9 -99.99 -9.99
2020/02/15 09:42 EST    0.47   0.67    6   72    8  27.9  42.1 1038.9 13.8  1.012 -99.9 -99.99 -9.99
2020/02/15 09:48 EST    0.44   0.63    6   82    9  28.2  42.1 1038.9 13.8  1.012 -99.9 -99.99 -9.99
2020/02/15 09:54 EST    0.40   0.61    5   65    7  27.9  42.1 1038.9 13.8  1.012 -99.9 -99.99 -9.99
2020/02/15 10:00 EST    0.37   0.57    7   75   10  27.7  42.1 1038.8 13.8  1.012 -99.9 -99.99 -9.99
2020/02/15 10:06 EST    0.34   0.54    6   87    8  27.5  42.1 1038.7 13.8  1.012 -99.9 -99.99 -9.99
2020/02/15 10:12 EST    0.31   0.52    7   97    9  27.9  42.1 1038.6 13.8  1.012 -99.9 -99.99 -9.99
2020/02/15 10:18 EST    0.28   0.49    7   79   10  27.7  42.1 1038.5 13.8  1.012 -99.9 -99.99 -9.99
2020/02/15 10:24 EST    0.25   0.47    6   69   10  28.0  42.1 1038.4 13.8  1.012 -99.9 -99.99 -9.99
2020/02/15 10:30 EST    0.22   0.45    7   94    8  27.7  42.1 1038.5 13.8  1.012 -99.9 -99.99 -9.99
2020/02/15 10:36 EST    0.19   0.42    6  102    7  27.7  42.3 1038.5 13.8  1.012 -99.9 -99.99 -9.99
2020/02/15 10:42 EST    0.16   0.40    6  114    9  27.7  42.3 1038.4 13.8  1.012 -99.9 -99.99 -9.99
2020/02/15 10:48 EST    0.14   0.38    7   83   11  27.9  42.4 1038.2 13.8  1.012 -99.9 -99.99 -9.99
2020/02/15 10:54 EST    0.11   0.36    4   88    6  27.9  42.6 1038.0 13.8  1.012 -99.9 -99.99 -9.99
2020/02/15 11:00 EST    0.08   0.33    6  105    7  27.7  42.6 1038.0 13.8  1.012 -99.9 -99.99 -9.99
2020/02/15 11:06 EST    0.06   0.33    5   63    6  28.2  42.8 1038.1 13.8  1.012 -99.9 -99.99 -9.99
2020/02/15 11:12 EST    0.04   0.31    3   67    4  28.4  43.0 1038.1 13.8  1.012 -99.9 -99.99 -9.99
2020/02/15 11:18 EST    0.01   0.29    5   71    6  28.6  43.0 1038.1 13.8  1.012 -99.9 -99.99 -9.99
2020/02/15 11:24 EST   -0.01   0.27    4   75    6  28.4  43.0 1038.1 13.8  1.012 -99.9 -99.99 -9.99
2020/02/15 11:30 EST   -0.03   0.25    4  108    5  28.2  43.0 1038.1 13.8  1.012 -99.9 -99.99 -9.99
2020/02/15 11:36 EST   -0.05   0.23    3  119    4  28.0  43.2 1038.0 13.8  1.012 -99.9 -99.99 -9.99
2020/02/15 11:42 EST   -0.07   0.22    4   88    6  28.4  43.2 1037.8 13.8  1.012 -99.9 -99.99 -9.99
2020/02/15 11:48 EST   -0.08   0.21    4  107    6  27.9  43.0 1037.7 13.8  1.012 -99.9 -99.99 -9.99
2020/02/15 11:54 EST   -0.10   0.21    3   87    6  27.9  43.0 1037.6 13.8  1.012 -99.9 -99.99 -9.99
2020/02/15 12:00 EST   -0.11   0.20    6  122    7  28.0  43.0 1037.5 13.8  1.012 -99.9 -99.99 -9.99
2020/02/15 12:06 EST   -0.12   0.19    5  115    6  27.9  43.0 1037.5 13.8  1.012 -99.9 -99.99 -9.99
2020/02/15 12:12 EST   -0.14   0.18    3   97    5  28.0  43.0 1037.6 13.8  1.012 -99.9 -99.99 -9.99
2020/02/15 12:18 EST   -0.14   0.18    3  107    6  28.2  43.2 1037.3 13.8  1.012 -99.9 -99.99 -9.99
2020/02/15 12:24 EST   -0.15   0.17    4  105    5  28.0  43.2 1037.2 13.8  1.012 -99.9 -99.99 -9.99
2020/02/15 12:30 EST   -0.16   0.18    6  105    7  28.0  43.2 1036.9 13.8  1.012 -99.9 -99.99 -9.99
2020/02/15 12:36 EST   -0.16   0.18    7  104    8  28.0  43.2 1036.5 13.8  1.012 -99.9 -99.99 -9.99
2020/02/15 12:42 EST   -0.17   0.18    5   96    7  28.0  43.2 1036.3 13.8  1.012 -99.9 -99.99 -9.99
2020/02/15 12:48 EST   -0.17   0.18    6   87    7  28.4  43.0 1036.2 13.8  1.012 -99.9 -99.99 -9.99
2020/02/15 12:54 EST   -0.17   0.18    4   99    7  28.6  42.6 1036.2 13.7  1.012 -99.9 -99.99 -9.99
2020/02/15 13:00 EST   -0.16   0.19    5   89    7  28.8  41.4 1036.0 13.7  1.012 -99.9 -99.99 -9.99
2020/02/15 13:06 EST   -0.16   0.20    8   99    9  28.4  41.0 1035.7 13.7  1.012 -99.9 -99.99 -9.99
2020/02/15 13:12 EST   -0.15   0.21    5   89    6  28.8  41.2 1035.7 13.7  1.012 -99.9 -99.99 -9.99
2020/02/15 13:18 EST   -0.14   0.23    8   95   10  28.6  41.7 1035.3 13.7  1.012 -99.9 -99.99 -9.99
2020/02/15 13:24 EST   -0.13   0.24    6   91    8  28.8  41.9 1035.2 13.7  1.012 -99.9 -99.99 -9.99
2020/02/15 13:30 EST   -0.12   0.25    7  101    8  28.6  42.1 1035.1 13.7  1.012 -99.9 -99.99 -9.99
2020/02/15 13:36 EST   -0.11   0.27    8  101    9  28.9  41.9 1034.8 13.7  1.012 -99.9 -99.99 -9.99
2020/02/15 13:42 EST   -0.09   0.29    9  109   11  29.1  41.9 1034.7 13.6  1.012 -99.9 -99.99 -9.99
2020/02/15 13:48 EST   -0.07   0.31    9  107   11  29.1  42.1 1034.6 13.6  1.012 -99.9 -99.99 -9.99
2020/02/15 13:54 EST   -0.06   0.33    9  104   11  29.3  42.1 1034.5 13.6  1.012 -99.9 -99.99 -9.99
2020/02/15 14:00 EST   -0.03   0.36    9  110   11  29.7  42.3 1034.4 13.6  1.012 -99.9 -99.99 -9.99
2020/02/15 14:06 EST   -0.01   0.37    8  102   10  29.5  42.6 1034.4 13.6  1.012 -99.9 -99.99 -9.99
2020/02/15 14:12 EST    0.01   0.40    8  115   11  29.7  42.3 1034.3 13.6  1.012 -99.9 -99.99 -9.99
2020/02/15 14:18 EST    0.04   0.43    9  101   11  29.8  42.4 1034.2 13.6  1.012 -99.9 -99.99 -9.99
2020/02/15 14:24 EST    0.06   0.45    8   95   10  30.2  42.6 1034.2 13.7  1.012 -99.9 -99.99 -9.99
2020/02/15 14:30 EST    0.09   0.48    9   96   11  30.6  42.8 1034.0 13.7  1.012 -99.9 -99.99 -9.99
2020/02/15 14:36 EST    0.11   0.51   10  103   11  31.1  42.6 1034.0 13.8  1.012 -99.9 -99.99 -9.99
2020/02/15 14:42 EST    0.14   0.54    9   97   10  31.5  42.8 1033.8 13.8  1.012 -99.9 -99.99 -9.99
2020/02/15 14:48 EST    0.17   0.57   11  102   12  31.6  43.0 1033.8 13.7  1.012 -99.9 -99.99 -9.99
2020/02/15 14:54 EST    0.20   0.60   11  105   14  31.8  43.0 1033.7 13.8  1.012 -99.9 -99.99 -9.99
2020/02/15 15:00 EST    0.23   0.62   11  103   13  32.0  43.0 1033.6 13.8  1.012 -99.9 -99.99 -9.99
2020/02/15 15:06 EST    0.26   0.66   11   92   13  32.2  43.0 1033.4 13.8  1.012 -99.9 -99.99 -9.99
2020/02/15 15:12 EST    0.29   0.70   12  101   14  32.4  43.0 1033.1 13.8  1.012 -99.9 -99.99 -9.99
2020/02/15 15:18 EST    0.32   0.73   12  101   14  32.9  43.0 1033.0 13.8  1.012 -99.9 -99.99 -9.99
2020/02/15 15:24 EST    0.35   0.77   12   95   14  33.3  43.0 1032.8 13.8  1.012 -99.9 -99.99 -9.99
2020/02/15 15:30 EST    0.38   0.80   10  159   14  34.9  43.0 1032.7 13.7  1.012 -99.9 -99.99 -9.99
2020/02/15 15:36 EST    0.42   0.82   12  168   15  35.2  43.0 1032.4 13.8  1.012 -99.9 -99.99 -9.99
2020/02/15 15:42 EST    0.45   0.85   12  161   15  34.9  43.0 1032.4 13.7  1.012 -99.9 -99.99 -9.99
2020/02/15 15:48 EST    0.47   0.86   11  160   13  35.2  43.0 1032.4 13.7  1.012 -99.9 -99.99 -9.99
2020/02/15 15:54 EST    0.50   0.88   12  175   15  34.7  42.8 1032.4 13.7  1.012 -99.9 -99.99 -9.99
2020/02/15 16:00 EST    0.53   0.91    9  174   12  34.9  42.8 1032.4 13.7  1.012 -99.9 -99.99 -9.99
2020/02/15 16:06 EST    0.56   0.93    9  168   11  35.2  43.0 1032.4 13.7  1.012 -99.9 -99.99 -9.99
2020/02/15 16:12 EST    0.59   0.95    8  173   10  35.2  43.0 1032.6 13.7  1.012 -99.9 -99.99 -9.99
2020/02/15 16:18 EST    0.62   0.99    7  182   11  35.2  42.8 1032.7 13.7  1.012 -99.9 -99.99 -9.99
2020/02/15 16:24 EST    0.64   1.02   10  178   11  35.4  42.8 1032.6 13.6  1.012 -99.9 -99.99 -9.99
2020/02/15 16:30 EST    0.67   1.05   10  160   12  35.1  42.8 1032.5 13.6  1.012 -99.9 -99.99 -9.99
2020/02/15 16:36 EST    0.69   1.08    7  177   10  35.6  42.6 1032.5 13.5  1.012 -99.9 -99.99 -9.99
2020/02/15 16:42 EST    0.72   1.10    8  157    9  35.2  42.4 1032.4 13.5  1.012 -99.9 -99.99 -9.99
2020/02/15 16:48 EST    0.74   1.12    8  169   10  35.2  42.4 1032.4 13.5  1.012 -99.9 -99.99 -9.99
2020/02/15 16:54 EST    0.76   1.15    7  159    8  35.2  42.4 1032.3 13.5  1.012 -99.9 -99.99 -9.99
2020/02/15 17:00 EST    0.78   1.18    8  170   10  35.4  42.4 1032.3 13.5  1.012 -99.9 -99.99 -9.99
2020/02/15 17:06 EST    0.80   1.20    9  177   10  35.2  42.4 1032.4 13.5  1.012 -99.9 -99.99 -9.99
2020/02/15 17:12 EST    0.82   1.22    9  160   12  34.9  42.4 1032.3 13.5  1.012 -99.9 -99.99 -9.99
2020/02/15 17:18 EST    0.84   1.23   10  167   12  34.7  42.4 1032.1 13.5  1.012 -99.9 -99.99 -9.99
2020/02/15 17:24 EST    0.86   1.24   10  165   11  34.5  42.4 1032.0 13.5  1.012 -99.9 -99.99 -9.99
2020/02/15 17:30 EST    0.87   1.25    8  173   11  34.5  42.4 1032.0 13.6  1.012 -99.9 -99.99 -9.99
2020/02/15 17:36 EST    0.89   1.26    9  176   11  34.3  42.4 1031.9 13.6  1.012 -99.9 -99.99 -9.99
2020/02/15 17:42 EST    0.90   1.27    8  175   10  34.2  42.3 1031.9 13.6  1.012 -99.9 -99.99 -9.99
2020/02/15 17:48 EST    0.91   1.29    8  171   10  34.0  42.3 1031.8 13.6  1.012 -99.9 -99.99 -9.99
2020/02/15 17:54 EST    0.93   1.30    8  167   10  34.0  42.3 1031.8 13.6  1.012 -99.9 -99.99 -9.99
2020/02/15 18:00 EST    0.94   1.31    8  166   10  33.8  42.3 1031.7 13.6  1.012 -99.9 -99.99 -9.99
2020/02/15 18:06 EST    0.95   1.32    7  166    9  33.4  42.3 1031.7 13.6  1.012 -99.9 -99.99 -9.99
2020/02/15 18:12 EST    0.95   1.33    8  163    9  33.3  42.3 1031.7 13.5  1.012 -99.9 -99.99 -9.99
2020/02/15 18:18 EST    0.96   1.34    6  167    8  33.3  42.1 1031.6 13.5  1.012 -99.9 -99.99 -9.99
2020/02/15 18:24 EST    0.97   1.35    7  169    9  33.1  42.1 1031.6 13.6  1.012 -99.9 -99.99 -9.99
2020/02/15 18:30 EST    0.97   1.35    7  164    8  33.1  42.1 1031.7 13.5  1.012 -99.9 -99.99 -9.99
2020/02/15 18:36 EST    0.98   1.37    7  167    9  33.1  42.1 1031.5 13.5  1.012 -99.9 -99.99 -9.99
2020/02/15 18:42 EST    0.98   1.37    7  169    7  32.9  42.1 1031.5 13.5  1.012 -99.9 -99.99 -9.99
2020/02/15 18:48 EST    0.98   1.37    7  169    8  32.7  42.1 1031.5 13.5  1.012 -99.9 -99.99 -9.99
2020/02/15 18:54 EST    0.98   1.37    7  174    8  32.9  42.1 1031.6 13.6  1.012 -99.9 -99.99 -9.99
2020/02/15 19:00 EST    0.97   1.36    7  177    8  32.7  42.1 1031.6 13.5  1.012 -99.9 -99.99 -9.99
2020/02/15 19:06 EST    0.97   1.37    6  175    7  32.9  42.1 1031.6 13.5  1.012 -99.9 -99.99 -9.99
2020/02/15 19:12 EST    0.97   1.37    5  175    6  32.9  42.1 1031.8 13.5  1.012 -99.9 -99.99 -9.99
2020/02/15 19:18 EST    0.96   1.37    6  173    8  33.1  42.1 1031.6 13.5  1.012 -99.9 -99.99 -9.99
2020/02/15 19:24 EST    0.95   1.36    6  172    7  33.1  41.9 1031.6 13.6  1.012 -99.9 -99.99 -9.99
2020/02/15 19:30 EST    0.94   1.35    7  175    9  33.1  42.1 1031.5 13.5  1.012 -99.9 -99.99 -9.99
2020/02/15 19:36 EST    0.93   1.34    6  179    7  33.3  41.9 1031.6 13.6  1.012 -99.9 -99.99 -9.99
2020/02/15 19:42 EST    0.92   1.33    7  182    9  33.3  41.9 1031.6 13.6  1.012 -99.9 -99.99 -9.99
2020/02/15 19:48 EST    0.90   1.33    8  183    9  33.3  41.9 1031.6 13.6  1.012 -99.9 -99.99 -9.99
2020/02/15 19:54 EST    0.89   1.32    7  178    8  33.3  41.9 1031.5 13.6  1.012 -99.9 -99.99 -9.99
2020/02/15 20:00 EST    0.87   1.31    7  182    9  33.1  41.9 1031.5 13.6  1.012 -99.9 -99.99 -9.99
2020/02/15 20:06 EST    0.85   1.29    7  175    8  33.1  41.9 1031.4 13.6  1.012 -99.9 -99.99 -9.99
2020/02/15 20:12 EST    0.83   1.26    6  181    8  33.3  42.1 1031.4 13.6  1.012 -99.9 -99.99 -9.99
2020/02/15 20:18 EST    0.81   1.25    7  196    8  33.4  42.1 1031.4 13.6  1.012 -99.9 -99.99 -9.99
2020/02/15 20:24 EST    0.79   1.23    8  194    9  33.3  42.1 1031.2 13.6  1.012 -99.9 -99.99 -9.99
2020/02/15 20:30 EST    0.76   1.21    7  194    9  33.3  42.1 1031.2 13.6  1.012 -99.9 -99.99 -9.99
2020/02/15 20:36 EST    0.74   1.19    8  188    9  33.4  42.1 1031.0 13.6  1.012 -99.9 -99.99 -9.99
2020/02/15 20:42 EST    0.71   1.16    7  195    8  33.6  42.1 1031.0 13.6  1.012 -99.9 -99.99 -9.99
2020/02/15 20:48 EST    0.69   1.14    7  193    9  33.6  42.1 1031.0 13.6  1.012 -99.9 -99.99 -9.99
2020/02/15 20:54 EST    0.66   1.12    5  191    6  33.8  42.1 1031.0 13.6  1.012 -99.9 -99.99 -9.99
2020/02/15 21:00 EST    0.63   1.09    7  191    9  33.6  42.1 1031.0 13.6  1.012 -99.9 -99.99 -9.99
2020/02/15 21:06 EST    0.61   1.06    7  189    8  33.6  42.1 1030.8 13.7  1.012 -99.9 -99.99 -9.99
2020/02/15 21:12 EST    0.58   1.04    7  193    9  33.6  42.1 1030.7 13.7  1.012 -99.9 -99.99 -9.99
2020/02/15 21:18 EST    0.55   1.01    6  177    8  33.8  42.1 1030.4 13.7  1.012 -99.9 -99.99 -9.99
2020/02/15 21:24 EST    0.52   0.98    7  177    8  33.1  42.1 1030.4 13.7  1.012 -99.9 -99.99 -9.99
2020/02/15 21:30 EST    0.49   0.95    6  177    8  33.1  42.1 1030.3 13.7  1.012 -99.9 -99.99 -9.99
2020/02/15 21:36 EST    0.46   0.92    5  180    7  33.3  42.1 1030.3 13.7  1.012 -99.9 -99.99 -9.99
2020/02/15 21:42 EST    0.43   0.89    7  189   10  33.6  42.1 1030.1 13.7  1.012 -99.9 -99.99 -9.99
2020/02/15 21:48 EST    0.40   0.86    7  193    9  33.6  42.1 1030.0 13.7  1.012 -99.9 -99.99 -9.99
2020/02/15 21:54 EST    0.37   0.84    8  191    9  33.8  42.1 1030.0 13.7  1.012 -99.9 -99.99 -9.99
2020/02/15 22:00 EST    0.34   0.81   10  191   12  33.8  42.1 1029.9 13.7  1.012 -99.9 -99.99 -9.99
2020/02/15 22:06 EST    0.31   0.79    8  203   10  33.8  42.1 1030.0 13.7  1.012 -99.9 -99.99 -9.99
2020/02/15 22:12 EST    0.28   0.76    9  198   11  34.0  42.1 1029.9 13.7  1.012 -99.9 -99.99 -9.99
2020/02/15 22:18 EST    0.25   0.73    9  197   11  33.8  42.1 1029.8 13.7  1.012 -99.9 -99.99 -9.99
2020/02/15 22:24 EST    0.23   0.71    9  202   11  33.8  42.1 1029.7 13.7  1.012 -99.9 -99.99 -9.99
2020/02/15 22:30 EST    0.20   0.68   10  197   11  34.0  42.1 1029.4 13.7  1.012 -99.9 -99.99 -9.99
2020/02/15 22:36 EST    0.17   0.66   10  191   14  34.2  42.1 1029.4 13.7  1.012 -99.9 -99.99 -9.99
2020/02/15 22:42 EST    0.14   0.64   11  194   14  33.8  42.1 1029.3 13.7  1.012 -99.9 -99.99 -9.99
2020/02/15 22:48 EST    0.12   0.61   10  194   12  34.0  42.1 1029.1 13.7  1.012 -99.9 -99.99 -9.99
2020/02/15 22:54 EST    0.09   0.59   10  191   11  34.2  42.1 1029.1 13.7  1.012 -99.9 -99.99 -9.99
2020/02/15 23:00 EST    0.07   0.57    9  190   11  34.2  42.1 1029.0 13.7  1.012 -99.9 -99.99 -9.99
2020/02/15 23:06 EST    0.05   0.56    9  193   11  34.2  42.1 1028.9 13.7  1.012 -99.9 -99.99 -9.99
2020/02/15 23:12 EST    0.02   0.54    9  193   11  34.2  42.1 1028.8 13.7  1.012 -99.9 -99.99 -9.99
2020/02/15 23:18 EST   -0.00   0.53    9  197   11  34.2  41.9 1028.7 13.8  1.012 -99.9 -99.99 -9.99
2020/02/15 23:24 EST   -0.02   0.52    9  199   11  34.2  41.9 1028.7 13.7  1.012 -99.9 -99.99 -9.99
2020/02/15 23:30 EST   -0.04   0.50    8  198   11  34.2  41.9 1028.6 13.7  1.012 -99.9 -99.99 -9.99
2020/02/15 23:36 EST   -0.06   0.49    8  192   11  34.0  41.9 1028.4 13.7  1.012 -99.9 -99.99 -9.99
2020/02/15 23:42 EST   -0.08   0.48    8  195   10  34.3  41.9 1028.5 13.7  1.012 -99.9 -99.99 -9.99
2020/02/15 23:48 EST   -0.10   0.47    8  192   10  34.3  41.9 1028.3 13.7  1.012 -99.9 -99.99 -9.99
2020/02/15 23:54 EST   -0.12   0.46    8  196   10  34.5  41.9 1028.4 13.7  1.012 -99.9 -99.99 -9.99
2020/02/16 00:00 EST   -0.13   0.45    7  197    9  34.5  41.9 1028.4 13.7  1.012 -99.9 -99.99 -9.99
2020/02/16 00:06 EST   -0.14   0.44    8  192    9  34.5  41.9 1028.2 13.7  1.012 -99.9 -99.99 -9.99
2020/02/16 00:12 EST   -0.16   0.42    8  190   10  34.3  41.9 1028.0 13.7  1.012 -99.9 -99.99 -9.99
2020/02/16 00:18 EST   -0.17   0.42    9  192   11  34.3  41.9 1028.0 13.7  1.012 -99.9 -99.99 -9.99
2020/02/16 00:24 EST   -0.18   0.41    9  192   11  34.3  41.9 1027.7 13.7  1.012 -99.9 -99.99 -9.99
2020/02/16 00:30 EST   -0.19   0.41    8  202    9  34.5  41.9 1027.8 13.7  1.012 -99.9 -99.99 -9.99
2020/02/16 00:36 EST   -0.19   0.39    8  209    9  34.3  41.9 1027.9 13.7  1.012 -99.9 -99.99 -9.99
2020/02/16 00:42 EST   -0.20   0.39    7  206    9  34.2  41.9 1027.9 13.7  1.012 -99.9 -99.99 -9.99
2020/02/16 00:48 EST   -0.20   0.38    7  203    8  34.0  41.9 1027.8 13.7  1.012 -99.9 -99.99 -9.99
2020/02/16 00:54 EST   -0.21   0.38    7  192    9  34.2  41.9 1027.6 13.8  1.012 -99.9 -99.99 -9.99
2020/02/16 01:00 EST   -0.21   0.38    8  203    9  34.2  41.9 1027.7 13.8  1.012 -99.9 -99.99 -9.99
2020/02/16 01:06 EST   -0.21   0.38    8  205    9  34.0  41.9 1027.7 13.8  1.012 -99.9 -99.99 -9.99
2020/02/16 01:12 EST   -0.20   0.38    7  215    8  33.8  42.1 1027.9 13.7  1.012 -99.9 -99.99 -9.99
2020/02/16 01:18 EST   -0.20   0.39    7  211    8  33.8  42.1 1027.8 13.7  1.012 -99.9 -99.99 -9.99
2020/02/16 01:24 EST   -0.19   0.40    7  210    9  33.8  41.9 1027.8 13.8  1.012 -99.9 -99.99 -9.99
2020/02/16 01:30 EST   -0.18   0.41    6  202    8  34.0  41.9 1027.6 13.8  1.012 -99.9 -99.99 -9.99
2020/02/16 01:36 EST   -0.17   0.43    6  209    8  34.0  41.9 1027.6 13.8  1.012 -99.9 -99.99 -9.99
2020/02/16 01:42 EST   -0.16   0.45    7  209    9  34.0  41.9 1027.6 13.8  1.012 -99.9 -99.99 -9.99
2020/02/16 01:48 EST   -0.15   0.47    7  208    8  34.0  41.9 1027.5 13.8  1.012 -99.9 -99.99 -9.99
2020/02/16 01:54 EST   -0.13   0.48    8  209    9  34.0  41.9 1027.4 13.8  1.012 -99.9 -99.99 -9.99
2020/02/16 02:00 EST   -0.12   0.50    7  212    8  34.0  41.9 1027.4 13.7  1.012 -99.9 -99.99 -9.99
2020/02/16 02:06 EST   -0.10   0.52    6  217    7  34.2  41.7 1027.3 13.8  1.012 -99.9 -99.99 -9.99
2020/02/16 02:12 EST   -0.08   0.55    6  219    7  34.0  41.7 1027.1 13.7  1.012 -99.9 -99.99 -9.99
2020/02/16 02:18 EST   -0.05   0.58    5  214    7  34.2  41.5 1027.0 13.8  1.012 -99.9 -99.99 -9.99
2020/02/16 02:24 EST   -0.03   0.62    6  201    8  34.0  41.7 1026.9 13.7  1.012 -99.9 -99.99 -9.99
2020/02/16 02:30 EST   -0.00   0.66    5  210    7  34.0  41.7 1026.7 13.7  1.012 -99.9 -99.99 -9.99
2020/02/16 02:36 EST    0.02   0.69    6  214    7  33.8  41.5 1026.7 13.7  1.012 -99.9 -99.99 -9.99
2020/02/16 02:42 EST    0.05   0.72    6  206    7  33.8  41.5 1026.5 13.7  1.012 -99.9 -99.99 -9.99
2020/02/16 02:48 EST    0.08   0.75    6  209    7  33.8  41.5 1026.5 13.7  1.012 -99.9 -99.99 -9.99
2020/02/16 02:54 EST    0.11   0.79    5  213    6  34.2  41.5 1026.5 13.7  1.012 -99.9 -99.99 -9.99
2020/02/16 03:00 EST    0.14   0.84    6  209    7  34.2  41.5 1026.5 13.7  1.012 -99.9 -99.99 -9.99
2020/02/16 03:06 EST    0.17   0.87    6  206    7  34.2  41.5 1026.2 13.7  1.012 -99.9 -99.99 -9.99
2020/02/16 03:12 EST    0.21   0.91    6  204    7  34.2  41.4 1026.2 13.8  1.012 -99.9 -99.99 -9.99
2020/02/16 03:18 EST    0.24   0.94    7  215    8  34.2  41.5 1026.2 13.7  1.012 -99.9 -99.99 -9.99
2020/02/16 03:24 EST    0.27   0.98    7  208    8  34.0  41.4 1026.1 13.8  1.012 -99.9 -99.99 -9.99
2020/02/16 03:30 EST    0.31   1.02    7  207    8  34.0  41.4 1026.0 13.7  1.012 -99.9 -99.99 -9.99
2020/02/16 03:36 EST    0.34   1.06    7  205    8  34.2  41.5 1026.0 13.7  1.012 -99.9 -99.99 -9.99
2020/02/16 03:42 EST    0.38   1.10    7  211    8  34.2  41.5 1025.8 13.7  1.012 -99.9 -99.99 -9.99
2020/02/16 03:48 EST    0.41   1.14    7  211    8  34.2  41.5 1025.7 13.7  1.012 -99.9 -99.99 -9.99
2020/02/16 03:54 EST    0.45   1.16    6  212    7  34.2  41.5 1025.6 13.7  1.012 -99.9 -99.99 -9.99
2020/02/16 04:00 EST    0.48   1.19    7  208    9  34.0  41.5 1025.5 13.7  1.012 -99.9 -99.99 -9.99
2020/02/16 04:06 EST    0.52   1.22    7  214    8  34.2  41.7 1025.4 13.7  1.012 -99.9 -99.99 -9.99
2020/02/16 04:12 EST    0.55   1.25    8  217    9  34.2  41.7 1025.5 13.7  1.012 -99.9 -99.99 -9.99
2020/02/16 04:18 EST    0.58   1.28    7  220   10  34.3  41.7 1025.4 13.7  1.012 -99.9 -99.99 -9.99
2020/02/16 04:24 EST    0.62   1.31    9  221   11  34.2  41.7 1025.3 13.7  1.012 -99.9 -99.99 -9.99
2020/02/16 04:30 EST    0.65   1.35    9  214   10  34.2  41.7 1025.2 13.7  1.012 -99.9 -99.99 -9.99
2020/02/16 04:36 EST    0.68   1.38    8  218   10  34.3  41.7 1025.2 13.7  1.012 -99.9 -99.99 -9.99
2020/02/16 04:42 EST    0.71   1.41    9  219   10  34.3  41.7 1025.2 13.7  1.012 -99.9 -99.99 -9.99
2020/02/16 04:48 EST    0.74   1.44    9  218   10  34.7  41.9 1025.2 13.7  1.012 -99.9 -99.99 -9.99
2020/02/16 04:54 EST    0.77   1.47    9  225   12  34.5  41.9 1025.3 13.7  1.012 -99.9 -99.99 -9.99
2020/02/16 05:00 EST    0.80   1.50    7  224    9  34.5  41.9 1025.1 13.7  1.012 -99.9 -99.99 -9.99
2020/02/16 05:06 EST    0.83   1.53    8  223   10  34.7  41.9 1025.0 13.7  1.012 -99.9 -99.99 -9.99
2020/02/16 05:12 EST    0.86   1.56   10  220   12  34.7  41.9 1024.9 13.7  1.012 -99.9 -99.99 -9.99
2020/02/16 05:18 EST    0.89   1.57   10  217   12  34.9  41.9 1024.8 13.7  1.012 -99.9 -99.99 -9.99
2020/02/16 05:24 EST    0.91   1.59   10  217   11  34.9  41.9 1024.7 13.7  1.012 -99.9 -99.99 -9.99
2020/02/16 05:30 EST    0.94   1.61    9  213   11  35.1  41.9 1024.9 13.7  1.012 -99.9 -99.99 -9.99
2020/02/16 05:36 EST    0.96   1.62    7  223    8  34.9  41.9 1025.2 13.7  1.012 -99.9 -99.99 -9.99
2020/02/16 05:42 EST    0.98   1.65    7  219    9  34.9  41.9 1025.2 13.7  1.012 -99.9 -99.99 -9.99
2020/02/16 05:48 EST    1.00   1.67    8  216    9  35.1  41.9 1025.2 13.7  1.012 -99.9 -99.99 -9.99
2020/02/16 05:54 EST    1.03   1.68   10  214   12  35.1  41.9 1025.1 13.7  1.012 -99.9 -99.99 -9.99
2020/02/16 06:00 EST    1.05   1.70    8  219   10  35.4  41.9 1025.1 13.7  1.012 -99.9 -99.99 -9.99
2020/02/16 06:06 EST    1.06   1.72    8  225   10  35.2  41.7 1025.2 13.7  1.012 -99.9 -99.99 -9.99
2020/02/16 06:12 EST    1.08   1.74    9  226   11  35.1  41.7 1025.1 13.7  1.012 -99.9 -99.99 -9.99
2020/02/16 06:18 EST    1.10   1.75    7  234    9  35.1  41.7 1025.1 13.7  1.012 -99.9 -99.99 -9.99
2020/02/16 06:24 EST    1.11   1.77    7  235    9  35.1  41.7 1025.2 13.7  1.012 -99.9 -99.99 -9.99
2020/02/16 06:30 EST    1.13   1.79    6  231    8  34.9  41.7 1025.2 13.7  1.012 -99.9 -99.99 -9.99
2020/02/16 06:36 EST    1.14   1.80    7  231    8  34.9  41.7 1025.3 13.7  1.012 -99.9 -99.99 -9.99
2020/02/16 06:42 EST    1.15   1.81    7  233    8  34.9  41.7 1025.2 13.7  1.012 -99.9 -99.99 -9.99
2020/02/16 06:48 EST    1.16   1.83    7  227    8  34.9  41.7 1025.2 13.7  1.012 -99.9 -99.99 -9.99
2020/02/16 06:54 EST    1.17   1.84    8  220    9  34.9  41.5 1025.0 13.7  1.012 -99.9 -99.99 -9.99
2020/02/16 07:00 EST    1.18   1.85    7  234    9  34.9  41.5 1025.1 13.7  1.012 -99.9 -99.99 -9.99
2020/02/16 07:06 EST    1.18   1.86    7  227    8  34.7  41.5 1025.1 13.7  1.012 -99.9 -99.99 -9.99
2020/02/16 07:12 EST    1.19   1.87    6  226    9  34.7  41.5 1025.2 13.6  1.012 -99.9 -99.99 -9.99
2020/02/16 07:18 EST    1.19   1.87    6  221    8  34.9  41.5 1025.2 13.7  1.012 -99.9 -99.99 -9.99
2020/02/16 07:24 EST    1.19   1.87    8  224   10  34.9  41.5 1025.2 13.7  1.012 -99.9 -99.99 -9.99
2020/02/16 07:30 EST    1.19   1.87    7  229    9  34.9  41.5 1025.1 13.7  1.012 -99.9 -99.99 -9.99
2020/02/16 07:36 EST    1.19   1.87    7  227   10  34.9  41.5 1025.1 13.7  1.012 -99.9 -99.99 -9.99
2020/02/16 07:42 EST    1.19   1.88    7  229    9  35.1  41.5 1025.1 13.7  1.012 -99.9 -99.99 -9.99
2020/02/16 07:48 EST    1.18   1.87    7  227    8  35.2  41.5 1025.1 13.7  1.012 -99.9 -99.99 -9.99
2020/02/16 07:54 EST    1.18   1.86    7  221    8  35.2  41.5 1025.2 13.7  1.012 -99.9 -99.99 -9.99
2020/02/16 08:00 EST    1.17   1.85    7  225    9  35.6  41.5 1025.2 13.7  1.012 -99.9 -99.99 -9.99
2020/02/16 08:06 EST    1.16   1.85    9  231   11  35.6  41.7 1025.0 13.7  1.012 -99.9 -99.99 -9.99
2020/02/16 08:12 EST    1.15   1.84    9  236   11  35.8  41.7 1024.9 13.7  1.012 -99.9 -99.99 -9.99
2020/02/16 08:18 EST    1.14   1.84   10  239   13  36.1  41.7 1025.0 13.7  1.012 -99.9 -99.99 -9.99
2020/02/16 08:24 EST    1.12   1.83    9  232   11  36.5  41.7 1024.9 13.7  1.012 -99.9 -99.99 -9.99
2020/02/16 08:30 EST    1.10   1.81    8  226   10  36.9  41.5 1025.0 13.7  1.012 -99.9 -99.99 -9.99
2020/02/16 08:36 EST    1.09   1.79    9  228   11  36.9  41.5 1024.9 13.7  1.012 -99.9 -99.99 -9.99
2020/02/16 08:42 EST    1.07   1.78   10  233   12  37.2  41.5 1024.8 13.7  1.012 -99.9 -99.99 -9.99
2020/02/16 08:48 EST    1.05   1.75   11  236   13  37.6  41.7 1024.6 13.7  1.012 -99.9 -99.99 -9.99
2020/02/16 08:54 EST    1.03   1.73   11  225   13  37.8  41.5 1024.5 13.7  1.012 -99.9 -99.99 -9.99
2020/02/16 09:00 EST    1.00   1.72   11  226   13  37.9  41.5 1024.4 13.7  1.012 -99.9 -99.99 -9.99
2020/02/16 09:06 EST    0.98   1.70   10  233   12  38.3  41.7 1024.3 13.7  1.012 -99.9 -99.99 -9.99
2020/02/16 09:12 EST    0.96   1.67    9  230   11  38.7  41.7 1024.2 13.7  1.012 -99.9 -99.99 -9.99
2020/02/16 09:18 EST    0.93   1.65    7  246   10  38.8  41.7 1024.2 13.7  1.012 -99.9 -99.99 -9.99
2020/02/16 09:24 EST    0.90   1.62    8  246    9  39.2  41.7 1024.1 13.7  1.012 -99.9 -99.99 -9.99
2020/02/16 09:30 EST    0.88   1.60    9  242   11  39.4  41.7 1024.1 13.7  1.012 -99.9 -99.99 -9.99
2020/02/16 09:36 EST    0.85   1.58    9  248   12  39.6  41.7 1024.0 13.7  1.012 -99.9 -99.99 -9.99
2020/02/16 09:42 EST    0.82   1.56    9  250   11  39.6  41.7 1023.9 13.7  1.012 -99.9 -99.99 -9.99
2020/02/16 09:48 EST    0.79   1.54   10  264   13  39.6  41.7 1023.7 13.7  1.012 -99.9 -99.99 -9.99
2020/02/16 09:54 EST    0.76   1.52    8  248   10  39.9  41.7 1023.7 13.7  1.012 -99.9 -99.99 -9.99
2020/02/16 10:00 EST    0.73   1.48    8  250    9  40.3  41.7 1023.4 13.7  1.012 -99.9 -99.99 -9.99
2020/02/16 10:06 EST    0.70   1.46    8  251    9  40.5  41.7 1023.3 13.7  1.012 -99.9 -99.99 -9.99
2020/02/16 10:12 EST    0.67   1.43    9  262   11  40.3  41.7 1023.3 13.7  1.012 -99.9 -99.99 -9.99
2020/02/16 10:18 EST    0.64   1.39    7  252    9  40.8  41.7 1023.2 13.7  1.012 -99.9 -99.99 -9.99
2020/02/16 10:24 EST    0.60   1.37    8  248   10  41.5  41.7 1023.3 13.7  1.012 -99.9 -99.99 -9.99
2020/02/16 10:30 EST    0.57   1.34    7  258    9  41.5  41.7 1023.4 13.7  1.012 -99.9 -99.99 -9.99
2020/02/16 10:36 EST    0.54   1.32    8  253   10  42.1  41.7 1023.6 13.7  1.012 -99.9 -99.99 -9.99
2020/02/16 10:42 EST    0.51   1.29    7  235   10  42.6  41.9 1023.4 13.7  1.012 -99.9 -99.99 -9.99
2020/02/16 10:48 EST    0.48   1.26    5  224    6  43.2  41.9 1023.2 13.7  1.012 -99.9 -99.99 -9.99
2020/02/16 10:54 EST    0.45   1.24    6  220    8  43.2  41.9 1022.9 13.7  1.012 -99.9 -99.99 -9.99
2020/02/16 11:00 EST    0.42   1.22    4  217    5  43.9  41.9 1022.7 13.7  1.012 -99.9 -99.99 -9.99
2020/02/16 11:06 EST    0.39   1.19    5  220    6  44.2  41.9 1022.9 13.7  1.012 -99.9 -99.99 -9.99
2020/02/16 11:12 EST    0.36   1.17    6  201    7  43.7  41.9 1022.9 13.7  1.012 -99.9 -99.99 -9.99
2020/02/16 11:18 EST    0.33   1.15    4  213    6  44.6  41.9 1022.9 13.7  1.012 -99.9 -99.99 -9.99
2020/02/16 11:24 EST    0.30   1.13    6  213    7  44.4  42.1 1022.7 13.7  1.012 -99.9 -99.99 -9.99
2020/02/16 11:30 EST    0.27   1.11    5  186    6  44.4  42.1 1022.8 13.7  1.012 -99.9 -99.99 -9.99
2020/02/16 11:36 EST    0.25   1.09    6  216    8  45.1  42.1 1022.6 13.7  1.012 -99.9 -99.99 -9.99
2020/02/16 11:42 EST    0.22   1.07    6  185    7  45.1  42.3 1022.3 13.7  1.012 -99.9 -99.99 -9.99
2020/02/16 11:48 EST    0.19   1.04    6  223    7  45.5  42.3 1022.4 13.7  1.012 -99.9 -99.99 -9.99
2020/02/16 11:54 EST    0.17   1.02    4  203    4  46.0  42.3 1022.3 13.7  1.012 -99.9 -99.99 -9.99
2020/02/16 12:00 EST    0.14   1.00    3  243    6  46.8  42.3 1022.2 13.7  1.012 -99.9 -99.99 -9.99
2020/02/16 12:06 EST    0.12   0.98    3  243    4  46.9  42.3 1022.1 13.7  1.012 -99.9 -99.99 -9.99
2020/02/16 12:12 EST    0.09   0.96    4  272    5  46.9  42.3 1022.0 13.7  1.012 -99.9 -99.99 -9.99
2020/02/16 12:18 EST    0.07   0.94    4  264    5  47.1  42.3 1021.9 13.7  1.012 -99.9 -99.99 -9.99
2020/02/16 12:24 EST    0.05   0.93    3  259    4  47.1  42.4 1021.8 13.7  1.012 -99.9 -99.99 -9.99
2020/02/16 12:30 EST    0.03   0.91    4  254    4  47.3  42.4 1021.8 13.7  1.012 -99.9 -99.99 -9.99
2020/02/16 12:36 EST    0.01   0.90    3  235    4  47.8  42.4 1021.6 13.7  1.012 -99.9 -99.99 -9.99
2020/02/16 12:42 EST   -0.01   0.88    3  251    5  48.0  42.4 1021.3 13.7  1.012 -99.9 -99.99 -9.99
2020/02/16 12:48 EST   -0.03   0.87    3  272    3  47.8  42.4 1021.4 13.7  1.012 -99.9 -99.99 -9.99
2020/02/16 12:54 EST   -0.04   0.86    5  268    5  47.7  42.4 1021.3 13.7  1.012 -99.9 -99.99 -9.99
2020/02/16 13:00 EST   -0.06   0.84    6  268    7  47.8  42.4 1021.3 13.7  1.012 -99.9 -99.99 -9.99
2020/02/16 13:06 EST   -0.07   0.83    4  271    5  48.0  42.6 1021.1 13.7  1.012 -99.9 -99.99 -9.99
2020/02/16 13:12 EST   -0.08   0.83    2  279    4  48.2  42.6 1021.0 13.7  1.012 -99.9 -99.99 -9.99
2020/02/16 13:18 EST   -0.09   0.82    4   62    6  45.7  42.8 1021.0 13.7  1.012 -99.9 -99.99 -9.99
2020/02/16 13:24 EST   -0.10   0.81    5   69    6  44.6  42.8 1021.0 13.7  1.012 -99.9 -99.99 -9.99
2020/02/16 13:30 EST   -0.11   0.81    6   87    7  43.9  42.8 1020.9 13.7  1.012 -99.9 -99.99 -9.99
2020/02/16 13:36 EST   -0.12   0.80    6  112    7  43.5  42.8 1020.8 13.7  1.012 -99.9 -99.99 -9.99
2020/02/16 13:42 EST   -0.12   0.80    7  117    8  43.3  42.8 1020.6 13.7  1.012 -99.9 -99.99 -9.99
2020/02/16 13:48 EST   -0.12   0.80    6  112    7  43.3  42.8 1020.7 13.7  1.012 -99.9 -99.99 -9.99
2020/02/16 13:54 EST   -0.12   0.81    6  104    6  43.3  42.8 1020.6 13.7  1.012 -99.9 -99.99 -9.99
2020/02/16 14:00 EST   -0.12   0.79    6  111    7  43.2  42.8 1020.6 13.7  1.012 -99.9 -99.99 -9.99
2020/02/16 14:06 EST   -0.12   0.79    6  106    7  43.3  42.8 1020.6 13.7  1.012 -99.9 -99.99 -9.99
2020/02/16 14:12 EST   -0.11   0.80    6   94    7  43.3  42.6 1020.2 13.8  1.012 -99.9 -99.99 -9.99
2020/02/16 14:18 EST   -0.11   0.80    6   93    7  43.5  42.6 1020.2 13.7  1.012 -99.9 -99.99 -9.99
2020/02/16 14:24 EST   -0.10   0.80    4   86    5  43.9  42.6 1020.3 13.8  1.012 -99.9 -99.99 -9.99
2020/02/16 14:30 EST   -0.09   0.80    4   83    5  43.9  42.6 1020.5 13.8  1.012 -99.9 -99.99 -9.99
2020/02/16 14:36 EST   -0.07   0.80    4   83    5  44.1  42.6 1020.3 13.7  1.012 -99.9 -99.99 -9.99
2020/02/16 14:42 EST   -0.06   0.81    3   81    4  44.1  42.6 1020.3 13.7  1.012 -99.9 -99.99 -9.99
2020/02/16 14:48 EST   -0.05   0.82    3   80    4  44.2  42.4 1020.3 13.8  1.012 -99.9 -99.99 -9.99
2020/02/16 14:54 EST   -0.03   0.83    4   87    4  44.1  42.6 1020.2 13.7  1.012 -99.9 -99.99 -9.99
2020/02/16 15:00 EST   -0.01   0.83    4   92    4  44.1  42.4 1020.2 13.8  1.012 -99.9 -99.99 -9.99
2020/02/16 15:06 EST    0.01   0.83    4   84    4  44.1  42.4 1020.3 13.8  1.012 -99.9 -99.99 -9.99
2020/02/16 15:12 EST    0.03   0.85    3   95    3  44.2  42.4 1020.4 13.7  1.012 -99.9 -99.99 -9.99
2020/02/16 15:18 EST    0.05   0.87    3  107    4  44.1  42.4 1020.2 13.7  1.012 -99.9 -99.99 -9.99
2020/02/16 15:24 EST    0.07   0.87    4  118    4  44.2  42.4 1020.1 13.7  1.012 -99.9 -99.99 -9.99
2020/02/16 15:30 EST    0.10   0.90    4  131    4  44.1  42.4 1020.1 13.8  1.012 -99.9 -99.99 -9.99
2020/02/16 15:36 EST    0.12   0.92    4  122    4  44.2  42.4 1020.1 13.8  1.012 -99.9 -99.99 -9.99
2020/02/16 15:42 EST    0.15   0.93    3  119    4  44.2  42.4 1020.0 13.8  1.012 -99.9 -99.99 -9.99
2020/02/16 15:48 EST    0.17   0.96    4  121    4  44.2  42.4 1020.0 13.8  1.012 -99.9 -99.99 -9.99
2020/02/16 15:54 EST    0.20   0.97    4  127    5  44.2  42.4 1019.8 13.8  1.012 -99.9 -99.99 -9.99
2020/02/16 16:00 EST    0.23   0.98    4  129    4  44.2  42.4 1019.9 13.8  1.012 -99.9 -99.99 -9.99
2020/02/16 16:06 EST    0.25   1.03    3  126    4  44.2  42.4 1019.9 13.8  1.012 -99.9 -99.99 -9.99
2020/02/16 16:12 EST    0.28   1.05    4  126    4  44.2  42.4 1019.8 13.8  1.012 -99.9 -99.99 -9.99
2020/02/16 16:18 EST    0.31   1.06    4  132    4  44.6  42.4 1019.7 13.8  1.012 -99.9 -99.99 -9.99
2020/02/16 16:24 EST    0.34   1.09    6  133    6  44.4  42.4 1019.4 13.8  1.012 -99.9 -99.99 -9.99
2020/02/16 16:30 EST    0.37   1.12    5  137    5  45.1  42.4 1019.4 13.8  1.012 -99.9 -99.99 -9.99
2020/02/16 16:36 EST    0.39   1.14    4  131    5  45.1  42.6 1019.4 13.7  1.012 -99.9 -99.99 -9.99
2020/02/16 16:42 EST    0.42   1.16    3  127    4  45.3  42.6 1019.5 13.8  1.012 -99.9 -99.99 -9.99
2020/02/16 16:48 EST    0.45   1.19    2  133    3  45.3  42.8 1019.7 13.7  1.012 -99.9 -99.99 -9.99
2020/02/16 16:54 EST    0.47   1.21    4  119    4  45.1  42.8 1019.7 13.7  1.012 -99.9 -99.99 -9.99
2020/02/16 17:00 EST    0.50   1.23    3  115    3  45.0  42.6 1019.8 13.9  1.012 -99.9 -99.99 -9.99
2020/02/16 17:06 EST    0.53   1.26    4  121    4  45.0  42.6 1019.8 13.9  1.012 -99.9 -99.99 -9.99
2020/02/16 17:12 EST    0.55   1.29    4  118    4  45.1  42.8 1019.9 13.8  1.012 -99.9 -99.99 -9.99
2020/02/16 17:18 EST    0.58   1.30    4  110    4  45.0  42.6 1019.9 13.9  1.012 -99.9 -99.99 -9.99
2020/02/16 17:24 EST    0.60   1.33    4  107    4  44.8  42.4 1019.8 14.1  1.012 -99.9 -99.99 -9.99
2020/02/16 17:30 EST    0.62   1.34    3  110    4  44.8  42.4 1019.8 14.2  1.012 -99.9 -99.99 -9.99
2020/02/16 17:36 EST    0.65   1.35    3  116    3  45.0  42.4 1019.8 14.2  1.012 -99.9 -99.99 -9.99
2020/02/16 17:42 EST    0.67 -99.99 -999 -999 -999 -99.9 -99.9 -999.9 -9.9 -9.999 -99.9 -99.99 -9.99
2020/02/16 17:48 EST    0.69 -99.99 -999 -999 -999 -99.9 -99.9 -999.9 -9.9 -9.999 -99.9 -99.99 -9.99
2020/02/16 17:54 EST    0.71 -99.99 -999 -999 -999 -99.9 -99.9 -999.9 -9.9 -9.999 -99.9 -99.99 -9.99